DLH3W EDDF-KIAD
Flight info
| Callsign | DLH3W |
|---|---|
| Flight time | 8h 15m |
| Altitude | 38000 |
| Route | OBOKA3D OBOKA Z29 TORNU DCT MIMVA DCT GETNO DCT NIBOG DCT ETARI/M081F390 DCT 5630N02000W 5630N03000W 5530N04000W 5330N05000W DCT PELTU/N0474F400 DCT TAFFY DCT PQI DCT EEN DCT BAF HYPER9 |
| Aircraft | A346/H-SDE2E3FGHIJ3J4J5M1P2RWXYZ/LB1D1 |
Departure
| Time | 2026-04-15 07:44 |
|---|---|
| Airport | Frankfurt Main Airport (EDDF) |
Arrival
| Time | 2026-04-15 15:59 |
|---|---|
| Airport | Washington Dulles International Airport (KIAD) |
| Time | Latitude | Longitude | Altitude | Speed | Heading |
|---|---|---|---|---|---|
| 2026-04-15 07:18 | 50.04699 | 8.56160 | 354 ft | 0 kts | 339° |
| 2026-04-15 07:27 | 50.04698 | 8.56161 | 354 ft | 2 kts | 339° |
| 2026-04-15 07:28 | 50.04674 | 8.56175 | 361 ft | 4 kts | 339° |
| 2026-04-15 07:28 | 50.04649 | 8.56189 | 363 ft | 3 kts | 339° |
| 2026-04-15 07:28 | 50.04630 | 8.56204 | 363 ft | 4 kts | 319° |
| 2026-04-15 07:28 | 50.04620 | 8.56225 | 361 ft | 4 kts | 279° |
| 2026-04-15 07:29 | 50.04623 | 8.56257 | 360 ft | 4 kts | 250° |
| 2026-04-15 07:29 | 50.04632 | 8.56295 | 360 ft | 2 kts | 250° |
| 2026-04-15 07:29 | 50.04633 | 8.56298 | 359 ft | 0 kts | 250° |
| 2026-04-15 07:36 | 50.04633 | 8.56296 | 360 ft | 1 kts | 250° |
| 2026-04-15 07:36 | 50.04627 | 8.56272 | 360 ft | 3 kts | 250° |
| 2026-04-15 07:36 | 50.04616 | 8.56224 | 362 ft | 6 kts | 250° |
| 2026-04-15 07:36 | 50.04599 | 8.56147 | 359 ft | 9 kts | 250° |
| 2026-04-15 07:37 | 50.04575 | 8.56043 | 358 ft | 11 kts | 250° |
| 2026-04-15 07:37 | 50.04515 | 8.55960 | 360 ft | 13 kts | 203° |
| 2026-04-15 07:37 | 50.04426 | 8.55917 | 362 ft | 14 kts | 192° |
| 2026-04-15 07:37 | 50.04334 | 8.55934 | 358 ft | 11 kts | 159° |
| 2026-04-15 07:38 | 50.04281 | 8.55971 | 358 ft | 7 kts | 148° |
| 2026-04-15 07:38 | 50.04231 | 8.56026 | 359 ft | 10 kts | 143° |
| 2026-04-15 07:38 | 50.04159 | 8.56075 | 358 ft | 12 kts | 161° |
| 2026-04-15 07:38 | 50.04079 | 8.56058 | 362 ft | 13 kts | 232° |
| 2026-04-15 07:39 | 50.04041 | 8.55916 | 357 ft | 15 kts | 250° |
| 2026-04-15 07:39 | 50.04002 | 8.55757 | 361 ft | 17 kts | 250° |
| 2026-04-15 07:39 | 50.03959 | 8.55573 | 358 ft | 19 kts | 250° |
| 2026-04-15 07:39 | 50.03909 | 8.55366 | 356 ft | 21 kts | 249° |
| 2026-04-15 07:40 | 50.03856 | 8.55141 | 361 ft | 18 kts | 249° |
| 2026-04-15 07:40 | 50.03816 | 8.54975 | 359 ft | 17 kts | 249° |
| 2026-04-15 07:40 | 50.03772 | 8.54790 | 360 ft | 20 kts | 249° |
| 2026-04-15 07:40 | 50.03721 | 8.54579 | 361 ft | 22 kts | 250° |
| 2026-04-15 07:41 | 50.03666 | 8.54349 | 359 ft | 24 kts | 249° |
| 2026-04-15 07:41 | 50.03606 | 8.54101 | 361 ft | 25 kts | 249° |
| 2026-04-15 07:41 | 50.03548 | 8.53854 | 360 ft | 19 kts | 250° |
| 2026-04-15 07:41 | 50.03509 | 8.53690 | 359 ft | 16 kts | 250° |
| 2026-04-15 07:42 | 50.03472 | 8.53532 | 360 ft | 9 kts | 250° |
| 2026-04-15 07:42 | 50.03428 | 8.53448 | 355 ft | 11 kts | 204° |
| 2026-04-15 07:42 | 50.03372 | 8.53493 | 359 ft | 11 kts | 132° |
| 2026-04-15 07:42 | 50.03319 | 8.53593 | 362 ft | 12 kts | 128° |
| 2026-04-15 07:43 | 50.03322 | 8.53717 | 361 ft | 13 kts | 70° |
| 2026-04-15 07:43 | 50.03361 | 8.53885 | 361 ft | 32 kts | 70° |
| 2026-04-15 07:43 | 50.03519 | 8.54539 | 360 ft | 95 kts | 70° |
| 2026-04-15 07:43 | 50.03818 | 8.55785 | 359 ft | 148 kts | 70° |
| 2026-04-15 07:44 | 50.04227 | 8.57512 | 405 ft | 186 kts | 69° |
| 2026-04-15 07:44 | 50.04633 | 8.59411 | 1062 ft | 183 kts | 70° |
| 2026-04-15 07:44 | 50.05068 | 8.61314 | 1689 ft | 190 kts | 69° |
| 2026-04-15 07:44 | 50.05572 | 8.63257 | 2270 ft | 197 kts | 69° |
| 2026-04-15 07:45 | 50.06112 | 8.65269 | 2746 ft | 205 kts | 68° |
| 2026-04-15 07:45 | 50.06644 | 8.67389 | 3182 ft | 215 kts | 71° |
| 2026-04-15 07:45 | 50.07167 | 8.69747 | 3623 ft | 228 kts | 68° |
| 2026-04-15 07:45 | 50.08089 | 8.71738 | 4230 ft | 233 kts | 36° |
| 2026-04-15 07:46 | 50.09608 | 8.72819 | 4694 ft | 248 kts | 21° |
| 2026-04-15 07:46 | 50.11270 | 8.73777 | 5177 ft | 261 kts | 23° |
| 2026-04-15 07:46 | 50.12966 | 8.74857 | 5831 ft | 266 kts | 24° |
| 2026-04-15 07:46 | 50.14686 | 8.75982 | 6549 ft | 270 kts | 23° |
| 2026-04-15 07:47 | 50.16434 | 8.77144 | 7256 ft | 275 kts | 24° |
| 2026-04-15 07:47 | 50.18246 | 8.77975 | 7994 ft | 276 kts | 2° |
| 2026-04-15 07:47 | 50.20109 | 8.77363 | 8739 ft | 278 kts | 330° |
| 2026-04-15 07:47 | 50.21505 | 8.75301 | 9446 ft | 282 kts | 301° |
| 2026-04-15 07:48 | 50.22422 | 8.72546 | 10139 ft | 288 kts | 295° |
| 2026-04-15 07:48 | 50.23304 | 8.69726 | 10879 ft | 290 kts | 297° |
| 2026-04-15 07:48 | 50.24280 | 8.66881 | 11372 ft | 303 kts | 298° |
| 2026-04-15 07:48 | 50.25323 | 8.63923 | 11784 ft | 318 kts | 299° |
| 2026-04-15 07:49 | 50.26480 | 8.60869 | 12149 ft | 334 kts | 300° |
| 2026-04-15 07:49 | 50.27707 | 8.57692 | 12583 ft | 348 kts | 300° |
| 2026-04-15 07:49 | 50.28976 | 8.54369 | 12909 ft | 364 kts | 300° |
| 2026-04-15 07:49 | 50.30309 | 8.50876 | 13258 ft | 379 kts | 300° |
| 2026-04-15 07:50 | 50.31680 | 8.47300 | 13902 ft | 385 kts | 300° |
| 2026-04-15 07:50 | 50.33047 | 8.43737 | 14615 ft | 386 kts | 300° |
| 2026-04-15 07:50 | 50.34437 | 8.40107 | 15306 ft | 389 kts | 301° |
| 2026-04-15 07:50 | 50.35838 | 8.36454 | 15965 ft | 392 kts | 301° |
| 2026-04-15 07:51 | 50.36791 | 8.33967 | 16408 ft | 395 kts | 301° |
| 2026-04-15 07:51 | 50.38673 | 8.29051 | 17261 ft | 399 kts | 301° |
| 2026-04-15 07:51 | 50.40109 | 8.25295 | 17896 ft | 403 kts | 301° |
| 2026-04-15 07:51 | 50.41561 | 8.21492 | 18519 ft | 407 kts | 301° |
| 2026-04-15 07:52 | 50.42527 | 8.18961 | 18866 ft | 410 kts | 301° |
| 2026-04-15 07:52 | 50.44000 | 8.15097 | 19401 ft | 413 kts | 301° |
| 2026-04-15 07:52 | 50.45481 | 8.11205 | 19938 ft | 417 kts | 301° |
| 2026-04-15 07:52 | 50.46974 | 8.07277 | 20473 ft | 420 kts | 301° |
| 2026-04-15 07:53 | 50.48477 | 8.03316 | 21004 ft | 423 kts | 301° |
| 2026-04-15 07:53 | 50.49984 | 7.99336 | 21526 ft | 427 kts | 301° |
| 2026-04-15 07:53 | 50.51509 | 7.95305 | 22049 ft | 430 kts | 301° |
| 2026-04-15 07:53 | 50.53044 | 7.91241 | 22561 ft | 433 kts | 301° |
| 2026-04-15 07:54 | 50.54588 | 7.87148 | 23085 ft | 436 kts | 301° |
| 2026-04-15 07:54 | 50.56139 | 7.83026 | 23613 ft | 439 kts | 301° |
| 2026-04-15 07:54 | 50.57702 | 7.78865 | 24088 ft | 442 kts | 301° |
| 2026-04-15 07:54 | 50.59270 | 7.74683 | 24512 ft | 444 kts | 301° |
| 2026-04-15 07:55 | 50.60845 | 7.70479 | 24988 ft | 446 kts | 301° |
| 2026-04-15 07:55 | 50.62421 | 7.66264 | 25461 ft | 447 kts | 302° |
| 2026-04-15 07:55 | 50.65581 | 7.57795 | 26440 ft | 449 kts | 302° |
| 2026-04-15 07:56 | 50.67150 | 7.53578 | 26895 ft | 450 kts | 302° |
| 2026-04-15 07:56 | 50.68736 | 7.49312 | 27331 ft | 451 kts | 302° |
| 2026-04-15 07:56 | 50.70328 | 7.45024 | 27763 ft | 453 kts | 301° |
| 2026-04-15 07:56 | 50.71921 | 7.40723 | 28208 ft | 454 kts | 301° |
| 2026-04-15 07:57 | 50.73513 | 7.36410 | 28769 ft | 452 kts | 301° |
| 2026-04-15 07:57 | 50.75035 | 7.32073 | 29456 ft | 449 kts | 299° |
| 2026-04-15 07:57 | 50.76474 | 7.27712 | 30145 ft | 445 kts | 299° |
| 2026-04-15 07:57 | 50.77888 | 7.23369 | 30721 ft | 442 kts | 299° |
| 2026-04-15 07:58 | 50.79291 | 7.19049 | 31249 ft | 439 kts | 299° |
| 2026-04-15 07:58 | 50.80684 | 7.14755 | 31755 ft | 437 kts | 299° |
| 2026-04-15 07:58 | 50.82070 | 7.10480 | 32270 ft | 435 kts | 299° |
| 2026-04-15 07:58 | 50.83449 | 7.06225 | 32752 ft | 433 kts | 299° |
| 2026-04-15 07:59 | 50.84821 | 7.01990 | 33227 ft | 431 kts | 299° |
| 2026-04-15 07:59 | 50.86185 | 6.97767 | 33675 ft | 430 kts | 299° |
| 2026-04-15 07:59 | 50.87542 | 6.93553 | 34126 ft | 428 kts | 299° |
| 2026-04-15 07:59 | 50.88893 | 6.89349 | 34542 ft | 427 kts | 299° |
| 2026-04-15 08:00 | 50.90235 | 6.85166 | 34892 ft | 425 kts | 299° |
| 2026-04-15 08:00 | 50.91558 | 6.81039 | 35241 ft | 424 kts | 299° |
| 2026-04-15 08:00 | 50.92910 | 6.76817 | 35605 ft | 423 kts | 299° |
| 2026-04-15 08:00 | 50.94224 | 6.72707 | 35923 ft | 422 kts | 300° |
| 2026-04-15 08:01 | 50.95551 | 6.68548 | 36244 ft | 421 kts | 300° |
| 2026-04-15 08:01 | 50.96875 | 6.64394 | 36535 ft | 421 kts | 300° |
| 2026-04-15 08:01 | 50.98197 | 6.60242 | 36774 ft | 422 kts | 299° |
| 2026-04-15 08:01 | 50.99527 | 6.56073 | 36966 ft | 423 kts | 299° |
| 2026-04-15 08:02 | 51.00849 | 6.51904 | 37172 ft | 424 kts | 299° |
| 2026-04-15 08:02 | 51.02173 | 6.47715 | 37366 ft | 425 kts | 299° |
| 2026-04-15 08:02 | 51.03499 | 6.43514 | 37594 ft | 425 kts | 299° |
| 2026-04-15 08:02 | 51.04828 | 6.39301 | 37784 ft | 426 kts | 299° |
| 2026-04-15 08:03 | 51.06156 | 6.35085 | 37979 ft | 426 kts | 299° |
| 2026-04-15 08:03 | 51.07485 | 6.30858 | 38158 ft | 427 kts | 299° |
| 2026-04-15 08:03 | 51.08813 | 6.26623 | 38230 ft | 428 kts | 299° |
| 2026-04-15 08:04 | 51.11451 | 6.18181 | 38237 ft | 428 kts | 298° |
| 2026-04-15 08:04 | 51.13782 | 6.09423 | 38233 ft | 430 kts | 292° |
| 2026-04-15 08:05 | 51.15557 | 6.00302 | 38239 ft | 431 kts | 288° |
| 2026-04-15 08:05 | 51.17587 | 5.91346 | 38244 ft | 428 kts | 297° |
| 2026-04-15 08:06 | 51.20566 | 5.83182 | 38225 ft | 425 kts | 307° |
| 2026-04-15 08:06 | 51.24409 | 5.76050 | 38220 ft | 424 kts | 316° |
| 2026-04-15 08:07 | 51.28920 | 5.69990 | 38212 ft | 425 kts | 321° |
| 2026-04-15 08:07 | 51.33594 | 5.64112 | 38209 ft | 426 kts | 321° |
| 2026-04-15 08:08 | 51.38233 | 5.58274 | 38204 ft | 427 kts | 321° |
| 2026-04-15 08:08 | 51.42900 | 5.52385 | 38223 ft | 427 kts | 321° |
| 2026-04-15 08:09 | 51.47561 | 5.46489 | 38211 ft | 426 kts | 320° |
| 2026-04-15 08:09 | 51.52218 | 5.40581 | 38212 ft | 426 kts | 320° |
| 2026-04-15 08:10 | 51.56867 | 5.34666 | 38215 ft | 426 kts | 320° |
| 2026-04-15 08:10 | 51.61518 | 5.28738 | 38205 ft | 427 kts | 320° |
| 2026-04-15 08:11 | 51.66196 | 5.22758 | 38216 ft | 429 kts | 320° |
| 2026-04-15 08:11 | 51.70848 | 5.16789 | 38225 ft | 429 kts | 320° |
| 2026-04-15 08:12 | 51.75519 | 5.10781 | 38216 ft | 429 kts | 319° |
| 2026-04-15 08:12 | 51.80188 | 5.04758 | 38207 ft | 429 kts | 319° |
| 2026-04-15 08:13 | 51.84817 | 4.98771 | 38206 ft | 429 kts | 319° |
| 2026-04-15 08:13 | 51.89480 | 4.92727 | 38205 ft | 429 kts | 319° |
| 2026-04-15 08:14 | 51.94137 | 4.86673 | 38190 ft | 429 kts | 319° |
| 2026-04-15 08:14 | 51.98821 | 4.80578 | 38195 ft | 431 kts | 319° |
| 2026-04-15 08:15 | 52.03485 | 4.74475 | 38193 ft | 431 kts | 318° |
| 2026-04-15 08:15 | 52.08121 | 4.68393 | 38193 ft | 431 kts | 318° |
| 2026-04-15 08:16 | 52.12788 | 4.62258 | 38184 ft | 431 kts | 318° |
| 2026-04-15 08:16 | 52.17457 | 4.56103 | 38187 ft | 431 kts | 318° |
| 2026-04-15 08:17 | 52.22115 | 4.49950 | 38197 ft | 431 kts | 318° |
| 2026-04-15 08:17 | 52.26771 | 4.43776 | 38187 ft | 431 kts | 318° |
| 2026-04-15 08:18 | 52.31426 | 4.37588 | 38187 ft | 431 kts | 318° |
| 2026-04-15 08:18 | 52.36043 | 4.31434 | 38185 ft | 431 kts | 318° |
| 2026-04-15 08:19 | 52.40692 | 4.25219 | 38185 ft | 431 kts | 318° |
| 2026-04-15 08:19 | 52.45337 | 4.18993 | 38203 ft | 431 kts | 318° |
| 2026-04-15 08:20 | 52.49970 | 4.12767 | 38182 ft | 430 kts | 317° |
| 2026-04-15 08:20 | 52.54601 | 4.06525 | 38179 ft | 430 kts | 317° |
| 2026-04-15 08:21 | 52.59194 | 4.00315 | 38179 ft | 430 kts | 317° |
| 2026-04-15 08:21 | 52.63819 | 3.94059 | 38175 ft | 432 kts | 317° |
| 2026-04-15 08:22 | 52.68456 | 3.87749 | 38174 ft | 432 kts | 317° |
| 2026-04-15 08:22 | 52.73096 | 3.81422 | 38155 ft | 432 kts | 316° |
| 2026-04-15 08:23 | 52.77734 | 3.75080 | 38153 ft | 432 kts | 316° |
| 2026-04-15 08:23 | 52.82362 | 3.68734 | 38151 ft | 432 kts | 316° |
| 2026-04-15 08:24 | 52.86990 | 3.62373 | 38132 ft | 432 kts | 316° |
| 2026-04-15 08:24 | 52.91585 | 3.56038 | 38136 ft | 432 kts | 316° |
| 2026-04-15 08:25 | 52.96216 | 3.49645 | 38154 ft | 435 kts | 316° |
| 2026-04-15 08:25 | 53.00858 | 3.43201 | 38116 ft | 435 kts | 315° |
| 2026-04-15 08:26 | 53.05234 | 3.36339 | 38131 ft | 430 kts | 307° |
| 2026-04-15 08:26 | 53.08775 | 3.28373 | 38132 ft | 426 kts | 298° |
| 2026-04-15 08:27 | 53.11387 | 3.19603 | 38107 ft | 423 kts | 289° |
| 2026-04-15 08:27 | 53.13098 | 3.10233 | 38127 ft | 422 kts | 283° |
| 2026-04-15 08:28 | 53.14544 | 3.00747 | 38122 ft | 423 kts | 282° |
| 2026-04-15 08:28 | 53.15972 | 2.91218 | 38123 ft | 424 kts | 282° |
| 2026-04-15 08:29 | 53.17393 | 2.81666 | 38109 ft | 424 kts | 282° |
| 2026-04-15 08:29 | 53.18798 | 2.72175 | 38109 ft | 424 kts | 282° |
| 2026-04-15 08:30 | 53.20206 | 2.62613 | 38100 ft | 424 kts | 282° |
| 2026-04-15 08:30 | 53.21609 | 2.53043 | 38118 ft | 424 kts | 281° |
| 2026-04-15 08:31 | 53.23007 | 2.43466 | 38109 ft | 424 kts | 281° |
| 2026-04-15 08:31 | 53.24387 | 2.33900 | 38092 ft | 423 kts | 280° |
| 2026-04-15 08:32 | 53.25765 | 2.24290 | 38094 ft | 423 kts | 280° |
| 2026-04-15 08:32 | 53.27131 | 2.14717 | 38090 ft | 423 kts | 280° |
| 2026-04-15 08:33 | 53.28492 | 2.05124 | 38087 ft | 423 kts | 280° |
| 2026-04-15 08:33 | 53.29846 | 1.95578 | 38084 ft | 425 kts | 279° |
| 2026-04-15 08:34 | 53.31193 | 1.85940 | 38080 ft | 425 kts | 279° |
| 2026-04-15 08:34 | 53.32533 | 1.76294 | 38073 ft | 425 kts | 279° |
| 2026-04-15 08:35 | 53.33865 | 1.66655 | 38071 ft | 425 kts | 279° |
| 2026-04-15 08:35 | 53.35192 | 1.57000 | 38062 ft | 425 kts | 279° |
| 2026-04-15 08:36 | 53.36519 | 1.47325 | 38068 ft | 427 kts | 278° |
| 2026-04-15 08:36 | 53.37829 | 1.37651 | 38055 ft | 428 kts | 278° |
| 2026-04-15 08:37 | 53.39141 | 1.27894 | 38053 ft | 428 kts | 278° |
| 2026-04-15 08:37 | 53.40447 | 1.18131 | 38046 ft | 428 kts | 278° |
| 2026-04-15 08:38 | 53.41744 | 1.08377 | 38047 ft | 428 kts | 278° |
| 2026-04-15 08:38 | 53.43039 | 0.98612 | 38049 ft | 429 kts | 277° |
| 2026-04-15 08:39 | 53.44328 | 0.88786 | 38040 ft | 430 kts | 277° |
| 2026-04-15 08:39 | 53.45389 | 0.80622 | 38027 ft | 430 kts | 277° |
| 2026-04-15 08:40 | 53.46659 | 0.70802 | 38027 ft | 430 kts | 277° |
| 2026-04-15 08:40 | 53.48129 | 0.59364 | 38011 ft | 430 kts | 276° |
| 2026-04-15 08:41 | 53.49182 | 0.51116 | 38040 ft | 430 kts | 276° |
| 2026-04-15 08:41 | 53.50442 | 0.41231 | 38005 ft | 434 kts | 275° |
| 2026-04-15 08:42 | 53.51683 | 0.31351 | 38005 ft | 434 kts | 275° |
| 2026-04-15 08:42 | 53.52927 | 0.21383 | 38003 ft | 434 kts | 275° |
| 2026-04-15 08:43 | 53.54163 | 0.11418 | 37988 ft | 434 kts | 275° |
| 2026-04-15 08:43 | 53.55383 | 0.01515 | 37990 ft | 434 kts | 275° |
| 2026-04-15 08:44 | 53.56608 | -0.08471 | 38006 ft | 438 kts | 275° |
| 2026-04-15 08:44 | 53.57826 | -0.18526 | 37997 ft | 438 kts | 274° |
| 2026-04-15 08:45 | 53.59041 | -0.28619 | 37993 ft | 439 kts | 274° |
| 2026-04-15 08:45 | 53.60248 | -0.38712 | 37997 ft | 439 kts | 274° |
| 2026-04-15 08:46 | 53.61438 | -0.48736 | 37995 ft | 438 kts | 274° |
| 2026-04-15 08:46 | 53.62627 | -0.58834 | 37992 ft | 438 kts | 274° |
| 2026-04-15 08:47 | 53.63808 | -0.68936 | 37988 ft | 438 kts | 274° |
| 2026-04-15 08:47 | 53.64980 | -0.79041 | 37976 ft | 438 kts | 274° |
| 2026-04-15 08:48 | 53.66143 | -0.89152 | 37967 ft | 438 kts | 274° |
| 2026-04-15 08:48 | 53.67298 | -0.99275 | 37959 ft | 438 kts | 274° |
| 2026-04-15 08:49 | 53.68442 | -1.09329 | 37970 ft | 439 kts | 273° |
| 2026-04-15 08:49 | 53.69583 | -1.19495 | 37959 ft | 440 kts | 273° |
| 2026-04-15 08:50 | 53.70715 | -1.29671 | 37951 ft | 440 kts | 273° |
| 2026-04-15 08:50 | 53.71835 | -1.39810 | 37943 ft | 440 kts | 273° |
| 2026-04-15 08:51 | 53.72951 | -1.49997 | 37943 ft | 440 kts | 273° |
| 2026-04-15 08:51 | 53.74065 | -1.60217 | 37973 ft | 443 kts | 272° |
| 2026-04-15 08:52 | 53.75173 | -1.70487 | 37943 ft | 444 kts | 272° |
| 2026-04-15 08:52 | 53.76264 | -1.80715 | 37939 ft | 444 kts | 272° |
| 2026-04-15 08:53 | 53.77363 | -1.91086 | 37923 ft | 444 kts | 272° |
| 2026-04-15 08:53 | 53.78438 | -2.01317 | 37923 ft | 444 kts | 272° |
| 2026-04-15 08:54 | 53.79514 | -2.11646 | 37945 ft | 446 kts | 271° |
| 2026-04-15 08:54 | 53.80587 | -2.22056 | 37920 ft | 449 kts | 271° |
| 2026-04-15 08:55 | 53.81657 | -2.32505 | 37899 ft | 450 kts | 271° |
| 2026-04-15 08:55 | 53.82719 | -2.42966 | 37903 ft | 450 kts | 271° |
| 2026-04-15 08:56 | 53.83770 | -2.53422 | 37893 ft | 450 kts | 271° |
| 2026-04-15 08:56 | 53.84811 | -2.63881 | 37929 ft | 451 kts | 271° |
| 2026-04-15 08:57 | 53.85843 | -2.74369 | 37883 ft | 454 kts | 271° |
| 2026-04-15 08:57 | 53.86878 | -2.84941 | 37884 ft | 454 kts | 271° |
| 2026-04-15 08:58 | 53.87906 | -2.95537 | 37884 ft | 454 kts | 271° |
| 2026-04-15 08:58 | 53.89427 | -3.11430 | 37882 ft | 454 kts | 271° |
| 2026-04-15 08:59 | 53.90428 | -3.22040 | 37895 ft | 456 kts | 271° |
| 2026-04-15 08:59 | 53.91427 | -3.32701 | 37872 ft | 457 kts | 271° |
| 2026-04-15 09:00 | 53.92427 | -3.43329 | 37863 ft | 458 kts | 272° |
| 2026-04-15 09:00 | 53.93880 | -3.53992 | 37854 ft | 465 kts | 278° |
| 2026-04-15 09:01 | 53.95865 | -3.64529 | 37856 ft | 469 kts | 281° |
| 2026-04-15 09:01 | 53.97919 | -3.75047 | 37874 ft | 469 kts | 280° |
| 2026-04-15 09:02 | 53.99962 | -3.85584 | 37846 ft | 469 kts | 280° |
| 2026-04-15 09:02 | 54.01975 | -3.96049 | 37843 ft | 469 kts | 280° |
| 2026-04-15 09:03 | 54.03993 | -4.06603 | 37829 ft | 468 kts | 280° |
| 2026-04-15 09:03 | 54.06003 | -4.17179 | 37822 ft | 468 kts | 280° |
| 2026-04-15 09:04 | 54.08005 | -4.27775 | 37822 ft | 470 kts | 280° |
| 2026-04-15 09:04 | 54.09993 | -4.38361 | 37811 ft | 471 kts | 280° |
| 2026-04-15 09:05 | 54.11988 | -4.49034 | 37800 ft | 471 kts | 279° |
| 2026-04-15 09:05 | 54.13969 | -4.59698 | 37801 ft | 471 kts | 279° |
| 2026-04-15 09:06 | 54.15942 | -4.70379 | 37793 ft | 471 kts | 279° |
| 2026-04-15 09:06 | 54.17907 | -4.81088 | 37805 ft | 473 kts | 279° |
| 2026-04-15 09:07 | 54.19870 | -4.91848 | 37786 ft | 475 kts | 279° |
| 2026-04-15 09:07 | 54.21833 | -5.02652 | 37783 ft | 475 kts | 279° |
| 2026-04-15 09:08 | 54.23771 | -5.13386 | 37772 ft | 475 kts | 279° |
| 2026-04-15 09:08 | 54.25713 | -5.24204 | 37767 ft | 475 kts | 279° |
| 2026-04-15 09:09 | 54.27644 | -5.35039 | 37789 ft | 475 kts | 279° |
| 2026-04-15 09:09 | 54.29574 | -5.45937 | 37760 ft | 477 kts | 279° |
| 2026-04-15 09:10 | 54.31497 | -5.56843 | 37753 ft | 478 kts | 279° |
| 2026-04-15 09:10 | 54.33397 | -5.67684 | 37744 ft | 478 kts | 279° |
| 2026-04-15 09:11 | 54.35312 | -5.78685 | 37731 ft | 477 kts | 279° |
| 2026-04-15 09:11 | 54.37193 | -5.89556 | 37736 ft | 478 kts | 279° |
| 2026-04-15 09:12 | 54.39082 | -6.00540 | 37724 ft | 479 kts | 279° |
| 2026-04-15 09:12 | 54.40958 | -6.11516 | 37724 ft | 478 kts | 279° |
| 2026-04-15 09:13 | 54.42825 | -6.22512 | 37702 ft | 478 kts | 279° |
| 2026-04-15 09:13 | 54.44668 | -6.33432 | 37701 ft | 478 kts | 279° |
| 2026-04-15 09:14 | 54.46513 | -6.44432 | 37749 ft | 479 kts | 278° |
| 2026-04-15 09:14 | 54.48354 | -6.55490 | 37703 ft | 481 kts | 278° |
| 2026-04-15 09:15 | 54.50194 | -6.66595 | 37681 ft | 482 kts | 278° |
| 2026-04-15 09:15 | 54.52021 | -6.77701 | 37678 ft | 482 kts | 278° |
| 2026-04-15 09:16 | 54.53838 | -6.88816 | 37670 ft | 481 kts | 278° |
| 2026-04-15 09:16 | 54.55647 | -6.99958 | 37738 ft | 482 kts | 278° |
| 2026-04-15 09:17 | 54.57450 | -7.11130 | 37667 ft | 483 kts | 278° |
| 2026-04-15 09:17 | 54.59233 | -7.22258 | 37655 ft | 484 kts | 278° |
| 2026-04-15 09:18 | 54.61028 | -7.33533 | 37645 ft | 483 kts | 278° |
| 2026-04-15 09:18 | 54.62791 | -7.44675 | 37642 ft | 483 kts | 278° |
| 2026-04-15 09:19 | 54.64554 | -7.55902 | 37646 ft | 483 kts | 278° |
| 2026-04-15 09:19 | 54.66308 | -7.67146 | 37625 ft | 484 kts | 278° |
| 2026-04-15 09:20 | 54.68055 | -7.78411 | 37630 ft | 484 kts | 277° |
| 2026-04-15 09:20 | 54.69790 | -7.89695 | 37624 ft | 484 kts | 277° |
| 2026-04-15 09:21 | 54.71514 | -8.00969 | 37618 ft | 484 kts | 277° |
| 2026-04-15 09:21 | 54.73215 | -8.12174 | 37607 ft | 484 kts | 277° |
| 2026-04-15 09:22 | 54.74918 | -8.23489 | 37628 ft | 485 kts | 277° |
| 2026-04-15 09:22 | 54.76617 | -8.34832 | 37610 ft | 486 kts | 277° |
| 2026-04-15 09:23 | 54.78305 | -8.46183 | 37603 ft | 486 kts | 277° |
| 2026-04-15 09:23 | 54.79971 | -8.57470 | 37600 ft | 485 kts | 277° |
| 2026-04-15 09:24 | 54.81637 | -8.68837 | 37602 ft | 485 kts | 277° |
| 2026-04-15 09:24 | 54.83288 | -8.80211 | 37613 ft | 486 kts | 277° |
| 2026-04-15 09:25 | 54.84936 | -8.91616 | 37610 ft | 486 kts | 277° |
| 2026-04-15 09:25 | 54.86576 | -9.03043 | 37609 ft | 486 kts | 277° |
| 2026-04-15 09:26 | 54.88204 | -9.14484 | 37608 ft | 486 kts | 277° |
| 2026-04-15 09:26 | 54.89812 | -9.25863 | 37604 ft | 486 kts | 277° |
| 2026-04-15 09:27 | 54.91415 | -9.37324 | 37616 ft | 488 kts | 277° |
| 2026-04-15 09:27 | 54.93018 | -9.48830 | 37601 ft | 488 kts | 277° |
| 2026-04-15 09:28 | 54.94598 | -9.60260 | 37599 ft | 488 kts | 277° |
| 2026-04-15 09:28 | 54.96176 | -9.71770 | 37594 ft | 488 kts | 277° |
| 2026-04-15 09:29 | 54.97742 | -9.83279 | 37592 ft | 488 kts | 277° |
| 2026-04-15 09:29 | 54.99295 | -9.94812 | 37599 ft | 488 kts | 277° |
| 2026-04-15 09:30 | 55.00564 | -10.04472 | 37594 ft | 488 kts | 276° |
| 2026-04-15 09:30 | 55.01960 | -10.16054 | 37590 ft | 487 kts | 276° |
| 2026-04-15 09:31 | 55.03328 | -10.27575 | 37582 ft | 487 kts | 276° |
| 2026-04-15 09:31 | 55.04702 | -10.39180 | 37572 ft | 487 kts | 275° |
| 2026-04-15 09:32 | 55.06066 | -10.50784 | 37596 ft | 487 kts | 276° |
| 2026-04-15 09:32 | 55.07422 | -10.62386 | 37573 ft | 488 kts | 276° |
| 2026-04-15 09:33 | 55.08760 | -10.73933 | 37565 ft | 488 kts | 276° |
| 2026-04-15 09:33 | 55.10097 | -10.85571 | 37557 ft | 488 kts | 275° |
| 2026-04-15 09:34 | 55.11423 | -10.97222 | 37558 ft | 488 kts | 275° |
| 2026-04-15 09:34 | 55.12733 | -11.08865 | 37578 ft | 488 kts | 276° |
| 2026-04-15 09:35 | 55.14036 | -11.20519 | 37556 ft | 487 kts | 275° |
| 2026-04-15 09:35 | 55.15329 | -11.32189 | 37554 ft | 487 kts | 275° |
| 2026-04-15 09:36 | 55.16599 | -11.43761 | 37548 ft | 487 kts | 275° |
| 2026-04-15 09:36 | 55.17867 | -11.55432 | 37543 ft | 487 kts | 275° |
| 2026-04-15 09:37 | 55.19125 | -11.67113 | 37543 ft | 487 kts | 275° |
| 2026-04-15 09:37 | 55.20374 | -11.78829 | 37537 ft | 487 kts | 275° |
| 2026-04-15 09:38 | 55.21608 | -11.90511 | 37535 ft | 487 kts | 275° |
| 2026-04-15 09:38 | 55.22831 | -12.02211 | 37530 ft | 488 kts | 275° |
| 2026-04-15 09:39 | 55.24035 | -12.13840 | 37533 ft | 488 kts | 275° |
| 2026-04-15 09:39 | 55.25234 | -12.25550 | 37536 ft | 487 kts | 275° |
| 2026-04-15 09:40 | 55.26424 | -12.37273 | 37524 ft | 487 kts | 275° |
| 2026-04-15 09:40 | 55.27602 | -12.48983 | 37514 ft | 487 kts | 275° |
| 2026-04-15 09:41 | 55.28769 | -12.60710 | 37511 ft | 487 kts | 275° |
| 2026-04-15 09:41 | 55.29923 | -12.72432 | 37501 ft | 487 kts | 275° |
| 2026-04-15 09:42 | 55.31065 | -12.84163 | 37522 ft | 486 kts | 275° |
| 2026-04-15 09:42 | 55.32189 | -12.95816 | 37496 ft | 486 kts | 275° |
| 2026-04-15 09:43 | 55.33309 | -13.07546 | 37497 ft | 486 kts | 274° |
| 2026-04-15 09:43 | 55.34419 | -13.19291 | 37490 ft | 486 kts | 274° |
| 2026-04-15 09:44 | 55.35515 | -13.31027 | 37484 ft | 486 kts | 274° |
| 2026-04-15 09:44 | 55.36601 | -13.42785 | 37508 ft | 485 kts | 274° |
| 2026-04-15 09:45 | 55.37671 | -13.54508 | 37479 ft | 485 kts | 274° |
| 2026-04-15 09:45 | 55.38732 | -13.66232 | 37475 ft | 485 kts | 274° |
| 2026-04-15 09:46 | 55.39781 | -13.77963 | 37470 ft | 485 kts | 274° |
| 2026-04-15 09:46 | 55.40819 | -13.89704 | 37468 ft | 484 kts | 274° |
| 2026-04-15 09:47 | 55.41838 | -14.01378 | 37495 ft | 484 kts | 274° |
| 2026-04-15 09:47 | 55.42851 | -14.13103 | 37461 ft | 483 kts | 274° |
| 2026-04-15 09:48 | 55.43853 | -14.24824 | 37459 ft | 483 kts | 274° |
| 2026-04-15 09:48 | 55.44843 | -14.36549 | 37452 ft | 483 kts | 274° |
| 2026-04-15 09:49 | 55.45821 | -14.48282 | 37450 ft | 484 kts | 274° |
| 2026-04-15 09:49 | 55.46790 | -14.60043 | 37476 ft | 484 kts | 274° |
| 2026-04-15 09:50 | 55.47746 | -14.71799 | 37449 ft | 483 kts | 274° |
| 2026-04-15 09:50 | 55.48691 | -14.83550 | 37436 ft | 483 kts | 274° |
| 2026-04-15 09:51 | 55.49795 | -14.95194 | 37432 ft | 485 kts | 278° |
| 2026-04-15 09:51 | 55.51576 | -15.06739 | 37435 ft | 489 kts | 284° |
| 2026-04-15 09:52 | 55.53981 | -15.18030 | 37427 ft | 491 kts | 288° |
| 2026-04-15 09:52 | 55.56502 | -15.29244 | 37429 ft | 489 kts | 288° |
| 2026-04-15 09:53 | 55.59003 | -15.40439 | 37427 ft | 488 kts | 288° |
| 2026-04-15 09:53 | 55.61488 | -15.51658 | 37428 ft | 489 kts | 287° |
| 2026-04-15 09:54 | 55.63948 | -15.62845 | 37416 ft | 490 kts | 287° |
| 2026-04-15 09:54 | 55.66415 | -15.74121 | 37414 ft | 490 kts | 287° |
| 2026-04-15 09:55 | 55.68866 | -15.85396 | 37419 ft | 490 kts | 287° |
| 2026-04-15 09:55 | 55.71303 | -15.96673 | 37415 ft | 488 kts | 287° |
| 2026-04-15 09:56 | 55.73727 | -16.07935 | 37406 ft | 488 kts | 287° |
| 2026-04-15 09:57 | 55.77341 | -16.24849 | 37410 ft | 488 kts | 287° |
| 2026-04-15 09:57 | 55.79742 | -16.36171 | 37401 ft | 489 kts | 287° |
| 2026-04-15 09:58 | 55.82133 | -16.47503 | 37396 ft | 489 kts | 287° |
| 2026-04-15 09:58 | 55.84494 | -16.58763 | 37405 ft | 488 kts | 287° |
| 2026-04-15 09:59 | 55.86861 | -16.70112 | 37385 ft | 487 kts | 287° |
| 2026-04-15 09:59 | 55.89215 | -16.81454 | 37385 ft | 487 kts | 287° |
| 2026-04-15 10:00 | 55.91559 | -16.92815 | 37381 ft | 487 kts | 287° |
| 2026-04-15 10:00 | 55.93889 | -17.04174 | 37390 ft | 487 kts | 287° |
| 2026-04-15 10:01 | 55.96210 | -17.15557 | 37382 ft | 487 kts | 287° |
| 2026-04-15 10:01 | 55.98508 | -17.26895 | 37400 ft | 487 kts | 287° |
| 2026-04-15 10:02 | 56.00803 | -17.38284 | 37381 ft | 486 kts | 287° |
| 2026-04-15 10:02 | 56.03086 | -17.49667 | 37377 ft | 486 kts | 287° |
| 2026-04-15 10:03 | 56.05357 | -17.61059 | 37377 ft | 486 kts | 286° |
| 2026-04-15 10:03 | 56.07622 | -17.72487 | 37377 ft | 486 kts | 286° |
| 2026-04-15 10:04 | 56.09871 | -17.83908 | 37374 ft | 486 kts | 286° |
| 2026-04-15 10:04 | 56.12113 | -17.95355 | 37374 ft | 486 kts | 286° |
| 2026-04-15 10:05 | 56.14347 | -18.06831 | 37366 ft | 486 kts | 286° |
| 2026-04-15 10:05 | 56.16570 | -18.18317 | 37369 ft | 486 kts | 286° |
| 2026-04-15 10:06 | 56.18783 | -18.29821 | 37370 ft | 486 kts | 286° |
| 2026-04-15 10:06 | 56.20972 | -18.41266 | 37364 ft | 486 kts | 286° |
| 2026-04-15 10:07 | 56.23163 | -18.52789 | 37368 ft | 486 kts | 285° |
| 2026-04-15 10:07 | 56.25338 | -18.64308 | 37389 ft | 486 kts | 286° |
| 2026-04-15 10:08 | 56.27500 | -18.75835 | 37366 ft | 485 kts | 286° |
| 2026-04-15 10:08 | 56.29651 | -18.87346 | 37359 ft | 484 kts | 286° |
| 2026-04-15 10:09 | 56.31793 | -18.98888 | 37357 ft | 485 kts | 286° |
| 2026-04-15 10:09 | 56.33925 | -19.10445 | 37362 ft | 484 kts | 285° |
| 2026-04-15 10:10 | 56.36041 | -19.21990 | 37355 ft | 484 kts | 285° |
| 2026-04-15 10:10 | 56.38136 | -19.33493 | 37383 ft | 484 kts | 285° |
| 2026-04-15 10:11 | 56.40225 | -19.45057 | 37364 ft | 484 kts | 286° |
| 2026-04-15 10:11 | 56.42312 | -19.56645 | 37360 ft | 484 kts | 285° |
| 2026-04-15 10:12 | 56.44388 | -19.68247 | 37357 ft | 484 kts | 285° |
| 2026-04-15 10:12 | 56.46450 | -19.79862 | 37357 ft | 484 kts | 285° |
| 2026-04-15 10:13 | 56.48458 | -19.91524 | 37356 ft | 483 kts | 283° |
| 2026-04-15 10:13 | 56.49888 | -20.03414 | 37375 ft | 482 kts | 277° |
| 2026-04-15 10:14 | 56.50596 | -20.15388 | 37363 ft | 480 kts | 272° |
| 2026-04-15 10:14 | 56.51057 | -20.27470 | 37359 ft | 480 kts | 272° |
| 2026-04-15 10:15 | 56.51502 | -20.39548 | 37353 ft | 480 kts | 272° |
| 2026-04-15 10:15 | 56.51941 | -20.51646 | 37358 ft | 481 kts | 272° |
| 2026-04-15 10:16 | 56.52300 | -20.61726 | 37353 ft | 481 kts | 272° |
| 2026-04-15 10:16 | 56.52718 | -20.73827 | 37363 ft | 479 kts | 272° |
| 2026-04-15 10:17 | 56.53127 | -20.85892 | 37358 ft | 479 kts | 272° |
| 2026-04-15 10:17 | 56.53525 | -20.97972 | 37356 ft | 479 kts | 272° |
| 2026-04-15 10:18 | 56.53910 | -21.10043 | 37354 ft | 479 kts | 271° |
| 2026-04-15 10:18 | 56.54283 | -21.22111 | 37351 ft | 479 kts | 271° |
| 2026-04-15 10:19 | 56.54642 | -21.34192 | 37356 ft | 477 kts | 272° |
| 2026-04-15 10:19 | 56.54987 | -21.46114 | 37349 ft | 475 kts | 271° |
| 2026-04-15 10:20 | 56.55324 | -21.58101 | 37352 ft | 475 kts | 271° |
| 2026-04-15 10:20 | 56.55649 | -21.70098 | 37348 ft | 475 kts | 271° |
| 2026-04-15 10:21 | 56.55961 | -21.82086 | 37354 ft | 475 kts | 271° |
| 2026-04-15 10:21 | 56.56262 | -21.94081 | 37361 ft | 475 kts | 271° |
| 2026-04-15 10:22 | 56.56548 | -22.06071 | 37356 ft | 474 kts | 271° |
| 2026-04-15 10:22 | 56.56827 | -22.18047 | 37352 ft | 474 kts | 271° |
| 2026-04-15 10:23 | 56.57093 | -22.29958 | 37351 ft | 474 kts | 271° |
| 2026-04-15 10:23 | 56.57347 | -22.41947 | 37351 ft | 474 kts | 271° |
| 2026-04-15 10:24 | 56.57590 | -22.53927 | 37351 ft | 474 kts | 271° |
| 2026-04-15 10:24 | 56.57819 | -22.65885 | 37353 ft | 473 kts | 271° |
| 2026-04-15 10:25 | 56.58039 | -22.77823 | 37352 ft | 472 kts | 271° |
| 2026-04-15 10:25 | 56.58246 | -22.89694 | 37354 ft | 472 kts | 271° |
| 2026-04-15 10:26 | 56.58442 | -23.01626 | 37354 ft | 472 kts | 271° |
| 2026-04-15 10:26 | 56.58627 | -23.13555 | 37354 ft | 472 kts | 271° |
| 2026-04-15 10:27 | 56.58798 | -23.25475 | 37356 ft | 471 kts | 271° |
| 2026-04-15 10:27 | 56.58959 | -23.37378 | 37357 ft | 471 kts | 271° |
| 2026-04-15 10:28 | 56.59111 | -23.49289 | 37354 ft | 471 kts | 271° |
| 2026-04-15 10:28 | 56.59250 | -23.61176 | 37354 ft | 471 kts | 271° |
| 2026-04-15 10:29 | 56.59377 | -23.73070 | 37354 ft | 471 kts | 271° |
| 2026-04-15 10:29 | 56.59493 | -23.84975 | 37354 ft | 471 kts | 270° |
| 2026-04-15 10:30 | 56.59597 | -23.96852 | 37357 ft | 470 kts | 270° |
| 2026-04-15 10:30 | 56.59690 | -24.08644 | 37359 ft | 469 kts | 270° |
| 2026-04-15 10:31 | 56.59771 | -24.20506 | 37363 ft | 469 kts | 270° |
| 2026-04-15 10:31 | 56.59841 | -24.32374 | 37360 ft | 469 kts | 270° |
| 2026-04-15 10:32 | 56.59900 | -24.44229 | 37359 ft | 469 kts | 270° |
| 2026-04-15 10:32 | 56.59947 | -24.56114 | 37357 ft | 469 kts | 270° |
| 2026-04-15 10:33 | 56.59984 | -24.67907 | 37359 ft | 469 kts | 270° |
| 2026-04-15 10:33 | 56.60009 | -24.79755 | 37360 ft | 469 kts | 270° |
| 2026-04-15 10:34 | 56.60024 | -24.91615 | 37363 ft | 469 kts | 270° |
| 2026-04-15 10:34 | 56.60026 | -25.03459 | 37362 ft | 468 kts | 270° |
| 2026-04-15 10:35 | 56.60017 | -25.15312 | 37361 ft | 468 kts | 270° |
| 2026-04-15 10:35 | 56.59997 | -25.27118 | 37362 ft | 466 kts | 270° |
| 2026-04-15 10:36 | 56.59967 | -25.38898 | 37362 ft | 466 kts | 270° |
| 2026-04-15 10:36 | 56.59925 | -25.50622 | 37362 ft | 466 kts | 269° |
| 2026-04-15 10:37 | 56.59872 | -25.62402 | 37362 ft | 466 kts | 269° |
| 2026-04-15 10:37 | 56.59808 | -25.74202 | 37362 ft | 466 kts | 269° |
| 2026-04-15 10:38 | 56.59731 | -25.85964 | 37362 ft | 464 kts | 269° |
| 2026-04-15 10:38 | 56.59646 | -25.97709 | 37363 ft | 464 kts | 269° |
| 2026-04-15 10:39 | 56.59550 | -26.09380 | 37362 ft | 464 kts | 269° |
| 2026-04-15 10:39 | 56.59442 | -26.21116 | 37362 ft | 464 kts | 269° |
| 2026-04-15 10:40 | 56.59323 | -26.32855 | 37362 ft | 464 kts | 269° |
| 2026-04-15 10:40 | 56.59191 | -26.44603 | 37360 ft | 463 kts | 269° |
| 2026-04-15 10:41 | 56.59051 | -26.56210 | 37359 ft | 462 kts | 269° |
| 2026-04-15 10:41 | 56.58900 | -26.67892 | 37362 ft | 462 kts | 269° |
| 2026-04-15 10:42 | 56.58738 | -26.79583 | 37359 ft | 462 kts | 269° |
| 2026-04-15 10:42 | 56.58565 | -26.91257 | 37359 ft | 462 kts | 269° |
| 2026-04-15 10:43 | 56.58380 | -27.02951 | 37362 ft | 462 kts | 269° |
| 2026-04-15 10:43 | 56.58185 | -27.14540 | 37363 ft | 460 kts | 269° |
| 2026-04-15 10:44 | 56.57981 | -27.26157 | 37367 ft | 460 kts | 268° |
| 2026-04-15 10:44 | 56.57765 | -27.37799 | 37357 ft | 461 kts | 268° |
| 2026-04-15 10:45 | 56.57538 | -27.49431 | 37368 ft | 461 kts | 268° |
| 2026-04-15 10:45 | 56.57299 | -27.61066 | 37368 ft | 461 kts | 268° |
| 2026-04-15 10:46 | 56.57050 | -27.72707 | 37362 ft | 460 kts | 268° |
| 2026-04-15 10:46 | 56.56791 | -27.84308 | 37364 ft | 459 kts | 268° |
| 2026-04-15 10:47 | 56.56521 | -27.95905 | 37359 ft | 459 kts | 268° |
| 2026-04-15 10:47 | 56.56240 | -28.07503 | 37363 ft | 459 kts | 268° |
| 2026-04-15 10:48 | 56.55951 | -28.19017 | 37360 ft | 459 kts | 268° |
| 2026-04-15 10:48 | 56.55649 | -28.30607 | 37360 ft | 459 kts | 268° |
| 2026-04-15 10:49 | 56.55335 | -28.42201 | 37350 ft | 459 kts | 268° |
| 2026-04-15 10:49 | 56.55012 | -28.53774 | 37358 ft | 459 kts | 268° |
| 2026-04-15 10:50 | 56.54679 | -28.65339 | 37363 ft | 459 kts | 267° |
| 2026-04-15 10:50 | 56.54334 | -28.76930 | 37363 ft | 460 kts | 267° |
| 2026-04-15 10:51 | 56.53977 | -28.88526 | 37361 ft | 460 kts | 267° |
| 2026-04-15 10:51 | 56.53609 | -29.00112 | 37359 ft | 458 kts | 267° |
| 2026-04-15 10:52 | 56.53232 | -29.11631 | 37368 ft | 455 kts | 267° |
| 2026-04-15 10:52 | 56.52850 | -29.23084 | 37370 ft | 455 kts | 267° |
| 2026-04-15 10:53 | 56.52457 | -29.34486 | 37374 ft | 454 kts | 267° |
| 2026-04-15 10:53 | 56.52053 | -29.45944 | 37374 ft | 456 kts | 267° |
| 2026-04-15 10:54 | 56.51635 | -29.57426 | 37386 ft | 455 kts | 267° |
| 2026-04-15 10:54 | 56.51210 | -29.68872 | 37385 ft | 455 kts | 267° |
| 2026-04-15 10:55 | 56.50773 | -29.80293 | 37389 ft | 452 kts | 266° |
| 2026-04-15 10:55 | 56.50330 | -29.91634 | 37396 ft | 454 kts | 266° |
| 2026-04-15 10:56 | 56.49850 | -30.03046 | 37403 ft | 453 kts | 265° |
| 2026-04-15 10:56 | 56.49187 | -30.14439 | 37407 ft | 455 kts | 264° |
| 2026-04-15 10:57 | 56.48492 | -30.25820 | 37407 ft | 454 kts | 264° |
| 2026-04-15 10:57 | 56.47449 | -30.42861 | 37414 ft | 452 kts | 264° |
| 2026-04-15 10:58 | 56.46749 | -30.54206 | 37419 ft | 453 kts | 264° |
| 2026-04-15 10:58 | 56.46044 | -30.65450 | 37424 ft | 452 kts | 264° |
| 2026-04-15 10:59 | 56.45322 | -30.76807 | 37434 ft | 453 kts | 264° |
| 2026-04-15 10:59 | 56.44593 | -30.88122 | 37427 ft | 453 kts | 264° |
| 2026-04-15 11:00 | 56.43851 | -30.99455 | 37456 ft | 452 kts | 264° |
| 2026-04-15 11:00 | 56.43101 | -31.10775 | 37458 ft | 453 kts | 264° |
| 2026-04-15 11:01 | 56.42339 | -31.22097 | 37460 ft | 452 kts | 264° |
| 2026-04-15 11:01 | 56.41572 | -31.33348 | 37470 ft | 453 kts | 263° |
| 2026-04-15 11:02 | 56.40788 | -31.44681 | 37467 ft | 453 kts | 263° |
| 2026-04-15 11:02 | 56.39994 | -31.56017 | 37468 ft | 453 kts | 263° |
| 2026-04-15 11:03 | 56.39199 | -31.67217 | 37468 ft | 455 kts | 263° |
| 2026-04-15 11:03 | 56.38368 | -31.78755 | 37486 ft | 453 kts | 263° |
| 2026-04-15 11:04 | 56.37542 | -31.90091 | 37491 ft | 454 kts | 263° |
| 2026-04-15 11:04 | 56.36848 | -31.99495 | 37498 ft | 453 kts | 263° |
| 2026-04-15 11:05 | 56.36005 | -32.10794 | 37486 ft | 454 kts | 263° |
| 2026-04-15 11:05 | 56.35012 | -32.23910 | 37506 ft | 454 kts | 263° |
| 2026-04-15 11:06 | 56.34287 | -32.33372 | 37513 ft | 453 kts | 263° |
| 2026-04-15 11:06 | 56.33415 | -32.44642 | 37520 ft | 454 kts | 263° |
| 2026-04-15 11:07 | 56.32536 | -32.55846 | 37523 ft | 453 kts | 263° |
| 2026-04-15 11:07 | 56.31641 | -32.67130 | 37521 ft | 454 kts | 263° |
| 2026-04-15 11:08 | 56.30738 | -32.78389 | 37523 ft | 453 kts | 262° |
| 2026-04-15 11:08 | 56.29821 | -32.89661 | 37531 ft | 452 kts | 262° |
| 2026-04-15 11:09 | 56.28897 | -33.00905 | 37542 ft | 454 kts | 262° |
| 2026-04-15 11:09 | 56.27966 | -33.12104 | 37544 ft | 453 kts | 262° |
| 2026-04-15 11:10 | 56.27019 | -33.23372 | 37556 ft | 454 kts | 262° |
| 2026-04-15 11:10 | 56.26063 | -33.34615 | 37544 ft | 454 kts | 262° |
| 2026-04-15 11:11 | 56.25095 | -33.45867 | 37554 ft | 453 kts | 262° |
| 2026-04-15 11:11 | 56.24118 | -33.57111 | 37562 ft | 455 kts | 262° |
| 2026-04-15 11:12 | 56.23129 | -33.68360 | 37575 ft | 454 kts | 262° |
| 2026-04-15 11:12 | 56.22131 | -33.79594 | 37569 ft | 454 kts | 262° |
| 2026-04-15 11:13 | 56.21130 | -33.90748 | 37568 ft | 455 kts | 261° |
| 2026-04-15 11:13 | 56.20113 | -34.01969 | 37572 ft | 453 kts | 261° |
| 2026-04-15 11:14 | 56.19084 | -34.13182 | 37582 ft | 454 kts | 261° |
| 2026-04-15 11:14 | 56.18045 | -34.24391 | 37588 ft | 454 kts | 261° |
| 2026-04-15 11:15 | 56.16996 | -34.35595 | 37602 ft | 454 kts | 261° |
| 2026-04-15 11:15 | 56.15938 | -34.46789 | 37601 ft | 455 kts | 261° |
| 2026-04-15 11:16 | 56.14878 | -34.57900 | 37595 ft | 454 kts | 261° |
| 2026-04-15 11:16 | 56.13792 | -34.69160 | 37606 ft | 454 kts | 261° |
| 2026-04-15 11:17 | 56.12710 | -34.80261 | 37609 ft | 455 kts | 260° |
| 2026-04-15 11:17 | 56.11610 | -34.91438 | 37617 ft | 454 kts | 260° |
| 2026-04-15 11:18 | 56.10500 | -35.02614 | 37614 ft | 454 kts | 260° |
| 2026-04-15 11:18 | 56.09388 | -35.13698 | 37621 ft | 454 kts | 260° |
| 2026-04-15 11:19 | 56.08259 | -35.24851 | 37625 ft | 454 kts | 260° |
| 2026-04-15 11:19 | 56.07117 | -35.36019 | 37626 ft | 455 kts | 260° |
| 2026-04-15 11:20 | 56.05966 | -35.47175 | 37634 ft | 454 kts | 260° |
| 2026-04-15 11:20 | 56.04807 | -35.58310 | 37635 ft | 454 kts | 259° |
| 2026-04-15 11:21 | 56.03637 | -35.69437 | 37642 ft | 454 kts | 259° |
| 2026-04-15 11:21 | 56.02484 | -35.80319 | 37649 ft | 454 kts | 259° |
| 2026-04-15 11:22 | 56.01302 | -35.91365 | 37654 ft | 453 kts | 259° |
| 2026-04-15 11:22 | 56.00106 | -36.02437 | 37652 ft | 453 kts | 259° |
| 2026-04-15 11:23 | 55.98900 | -36.13510 | 37659 ft | 453 kts | 259° |
| 2026-04-15 11:23 | 55.97683 | -36.24581 | 37661 ft | 453 kts | 259° |
| 2026-04-15 11:24 | 55.96458 | -36.35637 | 37661 ft | 453 kts | 259° |
| 2026-04-15 11:24 | 55.95224 | -36.46674 | 37669 ft | 453 kts | 259° |
| 2026-04-15 11:25 | 55.93978 | -36.57720 | 37669 ft | 453 kts | 259° |
| 2026-04-15 11:25 | 55.92733 | -36.68663 | 37670 ft | 453 kts | 259° |
| 2026-04-15 11:26 | 55.91468 | -36.79688 | 37672 ft | 452 kts | 258° |
| 2026-04-15 11:26 | 55.90195 | -36.90695 | 37678 ft | 453 kts | 258° |
| 2026-04-15 11:27 | 55.88912 | -37.01695 | 37683 ft | 452 kts | 258° |
| 2026-04-15 11:27 | 55.87617 | -37.12698 | 37689 ft | 452 kts | 258° |
| 2026-04-15 11:28 | 55.86324 | -37.23607 | 37689 ft | 452 kts | 258° |
| 2026-04-15 11:28 | 55.85010 | -37.34594 | 37698 ft | 452 kts | 258° |
| 2026-04-15 11:29 | 55.83688 | -37.45565 | 37698 ft | 452 kts | 258° |
| 2026-04-15 11:29 | 55.82364 | -37.56464 | 37703 ft | 452 kts | 258° |
| 2026-04-15 11:30 | 55.81024 | -37.67400 | 37709 ft | 452 kts | 258° |
| 2026-04-15 11:30 | 55.79675 | -37.78330 | 37714 ft | 452 kts | 258° |
| 2026-04-15 11:31 | 55.78318 | -37.89241 | 37711 ft | 452 kts | 258° |
| 2026-04-15 11:31 | 55.76950 | -38.00154 | 37719 ft | 452 kts | 258° |
| 2026-04-15 11:32 | 55.75573 | -38.11053 | 37713 ft | 452 kts | 258° |
| 2026-04-15 11:32 | 55.74186 | -38.21946 | 37731 ft | 451 kts | 257° |
| 2026-04-15 11:33 | 55.72792 | -38.32804 | 37725 ft | 451 kts | 257° |
| 2026-04-15 11:33 | 55.71397 | -38.43596 | 37725 ft | 450 kts | 257° |
| 2026-04-15 11:34 | 55.69982 | -38.54460 | 37738 ft | 451 kts | 257° |
| 2026-04-15 11:34 | 55.68561 | -38.65299 | 37737 ft | 451 kts | 257° |
| 2026-04-15 11:35 | 55.67128 | -38.76131 | 37744 ft | 450 kts | 257° |
| 2026-04-15 11:35 | 55.65695 | -38.86896 | 37745 ft | 451 kts | 257° |
| 2026-04-15 11:36 | 55.64244 | -38.97710 | 37755 ft | 451 kts | 257° |
| 2026-04-15 11:36 | 55.62786 | -39.08502 | 37754 ft | 450 kts | 257° |
| 2026-04-15 11:37 | 55.61315 | -39.19309 | 37768 ft | 451 kts | 257° |
| 2026-04-15 11:37 | 55.59837 | -39.30093 | 37759 ft | 451 kts | 257° |
| 2026-04-15 11:38 | 55.58352 | -39.40849 | 37772 ft | 449 kts | 257° |
| 2026-04-15 11:38 | 55.56855 | -39.51612 | 37772 ft | 450 kts | 257° |
| 2026-04-15 11:39 | 55.55351 | -39.62356 | 37780 ft | 450 kts | 256° |
| 2026-04-15 11:39 | 55.53837 | -39.73092 | 37793 ft | 449 kts | 256° |
| 2026-04-15 11:40 | 55.52315 | -39.83812 | 37795 ft | 449 kts | 256° |
| 2026-04-15 11:40 | 55.50782 | -39.94528 | 37798 ft | 450 kts | 256° |
| 2026-04-15 11:41 | 55.49222 | -40.05218 | 37803 ft | 450 kts | 255° |
| 2026-04-15 11:41 | 55.47607 | -40.15848 | 37805 ft | 449 kts | 255° |
| 2026-04-15 11:42 | 55.45974 | -40.26517 | 37812 ft | 450 kts | 255° |
| 2026-04-15 11:42 | 55.44335 | -40.37182 | 37818 ft | 450 kts | 255° |
| 2026-04-15 11:43 | 55.42685 | -40.47848 | 37811 ft | 450 kts | 255° |
| 2026-04-15 11:43 | 55.41027 | -40.58508 | 37824 ft | 451 kts | 255° |
| 2026-04-15 11:44 | 55.39363 | -40.69141 | 37816 ft | 451 kts | 255° |
| 2026-04-15 11:44 | 55.37687 | -40.79781 | 37837 ft | 450 kts | 255° |
| 2026-04-15 11:45 | 55.36014 | -40.90335 | 37846 ft | 450 kts | 255° |
| 2026-04-15 11:45 | 55.34322 | -41.00946 | 37834 ft | 451 kts | 255° |
| 2026-04-15 11:46 | 55.32617 | -41.11564 | 37847 ft | 451 kts | 255° |
| 2026-04-15 11:46 | 55.30903 | -41.22177 | 37844 ft | 450 kts | 255° |
| 2026-04-15 11:47 | 55.29178 | -41.32798 | 37855 ft | 451 kts | 255° |
| 2026-04-15 11:47 | 55.27445 | -41.43394 | 37870 ft | 452 kts | 255° |
| 2026-04-15 11:48 | 55.25702 | -41.53989 | 37874 ft | 451 kts | 254° |
| 2026-04-15 11:48 | 55.23948 | -41.64578 | 37867 ft | 451 kts | 255° |
| 2026-04-15 11:49 | 55.22184 | -41.75171 | 37879 ft | 452 kts | 254° |
| 2026-04-15 11:49 | 55.20411 | -41.85753 | 37876 ft | 452 kts | 254° |
| 2026-04-15 11:50 | 55.18641 | -41.96251 | 37890 ft | 452 kts | 254° |
| 2026-04-15 11:50 | 55.16851 | -42.06804 | 37890 ft | 452 kts | 254° |
| 2026-04-15 11:51 | 55.15053 | -42.17347 | 37888 ft | 452 kts | 254° |
| 2026-04-15 11:51 | 55.13242 | -42.27898 | 37891 ft | 452 kts | 254° |
| 2026-04-15 11:52 | 55.11422 | -42.38441 | 37892 ft | 452 kts | 254° |
| 2026-04-15 11:52 | 55.09589 | -42.48993 | 37900 ft | 452 kts | 254° |
| 2026-04-15 11:53 | 55.07748 | -42.59532 | 37907 ft | 452 kts | 254° |
| 2026-04-15 11:53 | 55.05901 | -42.70041 | 37906 ft | 452 kts | 253° |
| 2026-04-15 11:54 | 55.04046 | -42.80539 | 37915 ft | 452 kts | 253° |
| 2026-04-15 11:54 | 55.02192 | -42.90964 | 37913 ft | 452 kts | 253° |
| 2026-04-15 11:55 | 55.00321 | -43.01433 | 37920 ft | 452 kts | 253° |
| 2026-04-15 11:55 | 54.98439 | -43.11899 | 37920 ft | 452 kts | 253° |
| 2026-04-15 11:56 | 54.96869 | -43.20584 | 37919 ft | 452 kts | 253° |
| 2026-04-15 11:56 | 54.94969 | -43.31027 | 37928 ft | 451 kts | 253° |
| 2026-04-15 11:57 | 54.92112 | -43.46652 | 37935 ft | 451 kts | 253° |
| 2026-04-15 11:58 | 54.90197 | -43.57044 | 37932 ft | 451 kts | 253° |
| 2026-04-15 11:58 | 54.88272 | -43.67435 | 37941 ft | 451 kts | 253° |
| 2026-04-15 11:59 | 54.86337 | -43.77816 | 37933 ft | 451 kts | 253° |
| 2026-04-15 11:59 | 54.84398 | -43.88162 | 37949 ft | 450 kts | 253° |
| 2026-04-15 12:00 | 54.82464 | -43.98430 | 37947 ft | 450 kts | 253° |
| 2026-04-15 12:00 | 54.80496 | -44.08823 | 37968 ft | 450 kts | 253° |
| 2026-04-15 12:01 | 54.78543 | -44.19079 | 37959 ft | 450 kts | 253° |
| 2026-04-15 12:01 | 54.76570 | -44.29387 | 37959 ft | 450 kts | 253° |
| 2026-04-15 12:02 | 54.74583 | -44.39699 | 37958 ft | 449 kts | 253° |
| 2026-04-15 12:02 | 54.72594 | -44.49977 | 37961 ft | 449 kts | 253° |
| 2026-04-15 12:03 | 54.70596 | -44.60246 | 37966 ft | 449 kts | 253° |
| 2026-04-15 12:03 | 54.68601 | -44.70444 | 37967 ft | 449 kts | 252° |
| 2026-04-15 12:04 | 54.66586 | -44.80691 | 37973 ft | 449 kts | 252° |
| 2026-04-15 12:04 | 54.64551 | -44.90977 | 37966 ft | 449 kts | 252° |
| 2026-04-15 12:05 | 54.62537 | -45.01115 | 37978 ft | 448 kts | 252° |
| 2026-04-15 12:05 | 54.60501 | -45.11309 | 37982 ft | 448 kts | 252° |
| 2026-04-15 12:06 | 54.58459 | -45.21481 | 37984 ft | 448 kts | 252° |
| 2026-04-15 12:06 | 54.56406 | -45.31650 | 37985 ft | 448 kts | 252° |
| 2026-04-15 12:07 | 54.54345 | -45.41803 | 37984 ft | 448 kts | 252° |
| 2026-04-15 12:07 | 54.52281 | -45.51925 | 37985 ft | 447 kts | 252° |
| 2026-04-15 12:08 | 54.50207 | -45.62045 | 37988 ft | 447 kts | 252° |
| 2026-04-15 12:08 | 54.48128 | -45.72136 | 37994 ft | 447 kts | 252° |
| 2026-04-15 12:09 | 54.46051 | -45.82168 | 37997 ft | 447 kts | 252° |
| 2026-04-15 12:09 | 54.43953 | -45.92245 | 37987 ft | 447 kts | 252° |
| 2026-04-15 12:10 | 54.41852 | -46.02284 | 38003 ft | 446 kts | 252° |
| 2026-04-15 12:10 | 54.39742 | -46.12329 | 38001 ft | 446 kts | 252° |
| 2026-04-15 12:11 | 54.37625 | -46.22355 | 38004 ft | 446 kts | 252° |
| 2026-04-15 12:11 | 54.35499 | -46.32371 | 38004 ft | 446 kts | 252° |
| 2026-04-15 12:12 | 54.33363 | -46.42382 | 38002 ft | 446 kts | 252° |
| 2026-04-15 12:12 | 54.31235 | -46.52303 | 38005 ft | 446 kts | 252° |
| 2026-04-15 12:13 | 54.29082 | -46.62299 | 38010 ft | 446 kts | 252° |
| 2026-04-15 12:13 | 54.26921 | -46.72283 | 38026 ft | 446 kts | 252° |
| 2026-04-15 12:14 | 54.24754 | -46.82246 | 38020 ft | 446 kts | 252° |
| 2026-04-15 12:14 | 54.22579 | -46.92196 | 38024 ft | 446 kts | 252° |
| 2026-04-15 12:15 | 54.20398 | -47.02117 | 38015 ft | 445 kts | 252° |
| 2026-04-15 12:15 | 54.18212 | -47.12027 | 38027 ft | 445 kts | 252° |
| 2026-04-15 12:16 | 54.16017 | -47.21926 | 38030 ft | 445 kts | 251° |
| 2026-04-15 12:16 | 54.13829 | -47.31750 | 38034 ft | 445 kts | 251° |
| 2026-04-15 12:17 | 54.11618 | -47.41628 | 38033 ft | 445 kts | 251° |
| 2026-04-15 12:17 | 54.09394 | -47.51509 | 38023 ft | 445 kts | 251° |
| 2026-04-15 12:18 | 54.07169 | -47.61356 | 38033 ft | 444 kts | 251° |
| 2026-04-15 12:18 | 54.04940 | -47.71177 | 38039 ft | 444 kts | 251° |
| 2026-04-15 12:19 | 54.02701 | -47.80994 | 38043 ft | 444 kts | 251° |
| 2026-04-15 12:19 | 54.00453 | -47.90802 | 38047 ft | 444 kts | 251° |
| 2026-04-15 12:20 | 53.98202 | -48.00582 | 38051 ft | 444 kts | 251° |
| 2026-04-15 12:20 | 53.95942 | -48.10357 | 38048 ft | 444 kts | 251° |
| 2026-04-15 12:21 | 53.93687 | -48.20061 | 38044 ft | 444 kts | 251° |
| 2026-04-15 12:21 | 53.91396 | -48.29879 | 38051 ft | 444 kts | 251° |
| 2026-04-15 12:22 | 53.89124 | -48.39568 | 38050 ft | 444 kts | 251° |
| 2026-04-15 12:22 | 53.86830 | -48.49303 | 38031 ft | 444 kts | 251° |
| 2026-04-15 12:23 | 53.84533 | -48.59008 | 38045 ft | 443 kts | 251° |
| 2026-04-15 12:23 | 53.82232 | -48.68693 | 38050 ft | 442 kts | 251° |
| 2026-04-15 12:24 | 53.79926 | -48.78355 | 38061 ft | 442 kts | 251° |
| 2026-04-15 12:24 | 53.77607 | -48.88024 | 38059 ft | 443 kts | 251° |
| 2026-04-15 12:25 | 53.75298 | -48.97613 | 38059 ft | 443 kts | 251° |
| 2026-04-15 12:25 | 53.72970 | -49.07227 | 38053 ft | 441 kts | 251° |
| 2026-04-15 12:26 | 53.70638 | -49.16827 | 38062 ft | 441 kts | 251° |
| 2026-04-15 12:26 | 53.68296 | -49.26429 | 38064 ft | 440 kts | 250° |
| 2026-04-15 12:27 | 53.65954 | -49.35983 | 38060 ft | 440 kts | 250° |
| 2026-04-15 12:27 | 53.63603 | -49.45530 | 38062 ft | 440 kts | 250° |
| 2026-04-15 12:28 | 53.61248 | -49.55049 | 38063 ft | 439 kts | 250° |
| 2026-04-15 12:28 | 53.58906 | -49.64483 | 38072 ft | 439 kts | 250° |
| 2026-04-15 12:29 | 53.56542 | -49.73965 | 38067 ft | 439 kts | 250° |
| 2026-04-15 12:29 | 53.54168 | -49.83446 | 38077 ft | 439 kts | 250° |
| 2026-04-15 12:30 | 53.51783 | -49.92923 | 38066 ft | 439 kts | 250° |
| 2026-04-15 12:30 | 53.49405 | -50.02378 | 38057 ft | 438 kts | 251° |
| 2026-04-15 12:31 | 53.47111 | -50.11860 | 38082 ft | 437 kts | 251° |
| 2026-04-15 12:31 | 53.44819 | -50.21332 | 38080 ft | 437 kts | 251° |
| 2026-04-15 12:32 | 53.42514 | -50.30795 | 38088 ft | 437 kts | 251° |
| 2026-04-15 12:32 | 53.40196 | -50.40258 | 38091 ft | 437 kts | 251° |
| 2026-04-15 12:33 | 53.37888 | -50.49638 | 38065 ft | 437 kts | 251° |
| 2026-04-15 12:33 | 53.35559 | -50.59060 | 38085 ft | 437 kts | 251° |
| 2026-04-15 12:34 | 53.33222 | -50.68477 | 38111 ft | 437 kts | 250° |
| 2026-04-15 12:34 | 53.30877 | -50.77880 | 38108 ft | 437 kts | 250° |
| 2026-04-15 12:35 | 53.28525 | -50.87276 | 38114 ft | 437 kts | 250° |
| 2026-04-15 12:35 | 53.26169 | -50.96646 | 38122 ft | 437 kts | 250° |
| 2026-04-15 12:36 | 53.23818 | -51.05960 | 38114 ft | 437 kts | 250° |
| 2026-04-15 12:36 | 53.21444 | -51.15320 | 38128 ft | 437 kts | 250° |
| 2026-04-15 12:37 | 53.19064 | -51.24665 | 38125 ft | 437 kts | 250° |
| 2026-04-15 12:37 | 53.16676 | -51.34007 | 38138 ft | 437 kts | 250° |
| 2026-04-15 12:38 | 53.14281 | -51.43334 | 38137 ft | 437 kts | 250° |
| 2026-04-15 12:38 | 53.11877 | -51.52660 | 38147 ft | 437 kts | 250° |
| 2026-04-15 12:39 | 53.09467 | -51.61971 | 38150 ft | 437 kts | 250° |
| 2026-04-15 12:39 | 53.07051 | -51.71263 | 38168 ft | 437 kts | 249° |
| 2026-04-15 12:40 | 53.04642 | -51.80488 | 38156 ft | 437 kts | 249° |
| 2026-04-15 12:40 | 53.02212 | -51.89758 | 38170 ft | 437 kts | 249° |
| 2026-04-15 12:41 | 52.99780 | -51.98999 | 38161 ft | 437 kts | 249° |
| 2026-04-15 12:41 | 52.97736 | -52.06738 | 38182 ft | 436 kts | 249° |
| 2026-04-15 12:42 | 52.95301 | -52.15923 | 38186 ft | 436 kts | 249° |
| 2026-04-15 12:42 | 52.92846 | -52.25141 | 38190 ft | 436 kts | 249° |
| 2026-04-15 12:43 | 52.90385 | -52.34350 | 38188 ft | 436 kts | 249° |
| 2026-04-15 12:43 | 52.87916 | -52.43548 | 38187 ft | 436 kts | 249° |
| 2026-04-15 12:44 | 52.85439 | -52.52739 | 38194 ft | 436 kts | 249° |
| 2026-04-15 12:44 | 52.82959 | -52.61907 | 38201 ft | 436 kts | 249° |
| 2026-04-15 12:45 | 52.80473 | -52.71067 | 38211 ft | 436 kts | 249° |
| 2026-04-15 12:45 | 52.77982 | -52.80201 | 38203 ft | 436 kts | 249° |
| 2026-04-15 12:46 | 52.75495 | -52.89283 | 38208 ft | 436 kts | 248° |
| 2026-04-15 12:46 | 52.72989 | -52.98400 | 38214 ft | 436 kts | 248° |
| 2026-04-15 12:47 | 52.70476 | -53.07507 | 38218 ft | 436 kts | 248° |
| 2026-04-15 12:47 | 52.67958 | -53.16597 | 38219 ft | 436 kts | 248° |
| 2026-04-15 12:48 | 52.65429 | -53.25689 | 38223 ft | 436 kts | 248° |
| 2026-04-15 12:48 | 52.62889 | -53.34786 | 38228 ft | 436 kts | 248° |
| 2026-04-15 12:49 | 52.60346 | -53.43858 | 38223 ft | 435 kts | 248° |
| 2026-04-15 12:49 | 52.57798 | -53.52913 | 38234 ft | 435 kts | 248° |
| 2026-04-15 12:50 | 52.55244 | -53.61957 | 38234 ft | 435 kts | 248° |
| 2026-04-15 12:50 | 52.52685 | -53.70981 | 38240 ft | 435 kts | 248° |
| 2026-04-15 12:51 | 52.50121 | -53.79992 | 38252 ft | 435 kts | 248° |
| 2026-04-15 12:51 | 52.47565 | -53.88933 | 38230 ft | 435 kts | 248° |
| 2026-04-15 12:52 | 52.44989 | -53.97913 | 38247 ft | 434 kts | 248° |
| 2026-04-15 12:52 | 52.42406 | -54.06886 | 38250 ft | 434 kts | 248° |
| 2026-04-15 12:53 | 52.39816 | -54.15850 | 38252 ft | 434 kts | 248° |
| 2026-04-15 12:53 | 52.37219 | -54.24802 | 38261 ft | 434 kts | 248° |
| 2026-04-15 12:54 | 52.34616 | -54.33738 | 38243 ft | 434 kts | 248° |
| 2026-04-15 12:54 | 52.32020 | -54.42615 | 38260 ft | 434 kts | 248° |
| 2026-04-15 12:55 | 52.29406 | -54.51530 | 38260 ft | 434 kts | 248° |
| 2026-04-15 12:55 | 52.26777 | -54.60457 | 38263 ft | 434 kts | 248° |
| 2026-04-15 12:56 | 52.24151 | -54.69344 | 38276 ft | 434 kts | 248° |
| 2026-04-15 12:56 | 52.21506 | -54.78259 | 38245 ft | 435 kts | 247° |
| 2026-04-15 12:57 | 52.18863 | -54.87128 | 38283 ft | 434 kts | 248° |
| 2026-04-15 12:57 | 52.16216 | -54.95988 | 38278 ft | 434 kts | 247° |
| 2026-04-15 12:58 | 52.13581 | -55.04772 | 38276 ft | 434 kts | 247° |
| 2026-04-15 12:58 | 52.10918 | -55.13613 | 38274 ft | 434 kts | 247° |
| 2026-04-15 12:59 | 52.06894 | -55.26855 | 38255 ft | 434 kts | 247° |
| 2026-04-15 12:59 | 52.04200 | -55.35658 | 38271 ft | 434 kts | 247° |
| 2026-04-15 13:00 | 52.01501 | -55.44451 | 38273 ft | 434 kts | 247° |
| 2026-04-15 13:00 | 51.98801 | -55.53218 | 38272 ft | 434 kts | 247° |
| 2026-04-15 13:01 | 51.96108 | -55.61932 | 38267 ft | 434 kts | 247° |
| 2026-04-15 13:01 | 51.93388 | -55.70695 | 38241 ft | 434 kts | 247° |
| 2026-04-15 13:02 | 51.90667 | -55.79429 | 38258 ft | 434 kts | 247° |
| 2026-04-15 13:02 | 51.87945 | -55.88145 | 38263 ft | 434 kts | 247° |
| 2026-04-15 13:03 | 51.85212 | -55.96861 | 38264 ft | 433 kts | 247° |
| 2026-04-15 13:03 | 51.82476 | -56.05552 | 38261 ft | 433 kts | 247° |
| 2026-04-15 13:04 | 51.79735 | -56.14232 | 38238 ft | 433 kts | 247° |
| 2026-04-15 13:04 | 51.76989 | -56.22892 | 38261 ft | 432 kts | 247° |
| 2026-04-15 13:05 | 51.74238 | -56.31541 | 38258 ft | 432 kts | 247° |
| 2026-04-15 13:05 | 51.71482 | -56.40178 | 38254 ft | 432 kts | 246° |
| 2026-04-15 13:06 | 51.68719 | -56.48804 | 38258 ft | 432 kts | 246° |
| 2026-04-15 13:06 | 51.65947 | -56.57427 | 38235 ft | 433 kts | 246° |
| 2026-04-15 13:07 | 51.63170 | -56.66031 | 38251 ft | 432 kts | 246° |
| 2026-04-15 13:07 | 51.60408 | -56.74566 | 38256 ft | 432 kts | 246° |
| 2026-04-15 13:08 | 51.57631 | -56.83116 | 38256 ft | 432 kts | 246° |
| 2026-04-15 13:08 | 51.54823 | -56.91732 | 38260 ft | 432 kts | 246° |
| 2026-04-15 13:09 | 51.52026 | -57.00282 | 38268 ft | 432 kts | 246° |
| 2026-04-15 13:09 | 51.49218 | -57.08833 | 38258 ft | 432 kts | 246° |
| 2026-04-15 13:10 | 51.46408 | -57.17367 | 38264 ft | 432 kts | 246° |
| 2026-04-15 13:10 | 51.43593 | -57.25886 | 38252 ft | 432 kts | 246° |
| 2026-04-15 13:11 | 51.40769 | -57.34403 | 38255 ft | 432 kts | 246° |
| 2026-04-15 13:11 | 51.37939 | -57.42907 | 38252 ft | 432 kts | 246° |
| 2026-04-15 13:12 | 51.35101 | -57.51406 | 38251 ft | 432 kts | 246° |
| 2026-04-15 13:12 | 51.32259 | -57.59890 | 38260 ft | 432 kts | 246° |
| 2026-04-15 13:13 | 51.29409 | -57.68367 | 38257 ft | 432 kts | 246° |
| 2026-04-15 13:13 | 51.26553 | -57.76835 | 38258 ft | 432 kts | 246° |
| 2026-04-15 13:14 | 51.23690 | -57.85295 | 38257 ft | 432 kts | 246° |
| 2026-04-15 13:14 | 51.20822 | -57.93735 | 38250 ft | 432 kts | 246° |
| 2026-04-15 13:15 | 51.17957 | -58.02144 | 38265 ft | 431 kts | 246° |
| 2026-04-15 13:15 | 51.15085 | -58.10546 | 38263 ft | 431 kts | 246° |
| 2026-04-15 13:16 | 51.12208 | -58.18935 | 38266 ft | 431 kts | 246° |
| 2026-04-15 13:16 | 51.09324 | -58.27316 | 38266 ft | 431 kts | 246° |
| 2026-04-15 13:17 | 51.06433 | -58.35684 | 38260 ft | 431 kts | 246° |
| 2026-04-15 13:17 | 51.03540 | -58.44037 | 38262 ft | 431 kts | 246° |
| 2026-04-15 13:18 | 51.00640 | -58.52383 | 38263 ft | 431 kts | 246° |
| 2026-04-15 13:18 | 50.97734 | -58.60714 | 38257 ft | 431 kts | 246° |
| 2026-04-15 13:19 | 50.94821 | -58.69041 | 38260 ft | 431 kts | 245° |
| 2026-04-15 13:19 | 50.91903 | -58.77351 | 38258 ft | 431 kts | 245° |
| 2026-04-15 13:20 | 50.89002 | -58.85587 | 38259 ft | 431 kts | 245° |
| 2026-04-15 13:20 | 50.86073 | -58.93878 | 38274 ft | 430 kts | 245° |
| 2026-04-15 13:21 | 50.83145 | -59.02135 | 38251 ft | 430 kts | 245° |
| 2026-04-15 13:21 | 50.80214 | -59.10380 | 38250 ft | 430 kts | 245° |
| 2026-04-15 13:22 | 50.77277 | -59.18609 | 38243 ft | 429 kts | 245° |
| 2026-04-15 13:22 | 50.74334 | -59.26834 | 38251 ft | 429 kts | 245° |
| 2026-04-15 13:23 | 50.71385 | -59.35047 | 38255 ft | 429 kts | 245° |
| 2026-04-15 13:23 | 50.68432 | -59.43244 | 38247 ft | 429 kts | 245° |
| 2026-04-15 13:24 | 50.65471 | -59.51436 | 38245 ft | 429 kts | 245° |
| 2026-04-15 13:24 | 50.63007 | -59.58233 | 38238 ft | 429 kts | 245° |
| 2026-04-15 13:25 | 50.60039 | -59.66397 | 38249 ft | 429 kts | 245° |
| 2026-04-15 13:25 | 50.57066 | -59.74549 | 38243 ft | 429 kts | 245° |
| 2026-04-15 13:26 | 50.54087 | -59.82694 | 38243 ft | 429 kts | 245° |
| 2026-04-15 13:26 | 50.51102 | -59.90826 | 38254 ft | 429 kts | 245° |
| 2026-04-15 13:27 | 50.48118 | -59.98929 | 38240 ft | 428 kts | 245° |
| 2026-04-15 13:27 | 50.45130 | -60.07019 | 38243 ft | 428 kts | 245° |
| 2026-04-15 13:28 | 50.42138 | -60.15098 | 38247 ft | 428 kts | 245° |
| 2026-04-15 13:28 | 50.39137 | -60.23173 | 38243 ft | 428 kts | 245° |
| 2026-04-15 13:29 | 50.36132 | -60.31234 | 38247 ft | 428 kts | 245° |
| 2026-04-15 13:29 | 50.33120 | -60.39287 | 38241 ft | 428 kts | 245° |
| 2026-04-15 13:30 | 50.30104 | -60.47327 | 38247 ft | 428 kts | 245° |
| 2026-04-15 13:30 | 50.27084 | -60.55354 | 38246 ft | 428 kts | 245° |
| 2026-04-15 13:31 | 50.24057 | -60.63374 | 38253 ft | 428 kts | 245° |
| 2026-04-15 13:31 | 50.21024 | -60.71383 | 38250 ft | 428 kts | 245° |
| 2026-04-15 13:32 | 50.17986 | -60.79379 | 38235 ft | 427 kts | 245° |
| 2026-04-15 13:32 | 50.14948 | -60.87355 | 38242 ft | 427 kts | 245° |
| 2026-04-15 13:33 | 50.11904 | -60.95321 | 38248 ft | 427 kts | 244° |
| 2026-04-15 13:33 | 50.08858 | -61.03269 | 38243 ft | 427 kts | 244° |
| 2026-04-15 13:34 | 50.05796 | -61.11232 | 38246 ft | 427 kts | 244° |
| 2026-04-15 13:34 | 50.02738 | -61.19158 | 38235 ft | 426 kts | 244° |
| 2026-04-15 13:35 | 49.99678 | -61.27068 | 38241 ft | 426 kts | 244° |
| 2026-04-15 13:35 | 49.96616 | -61.34962 | 38241 ft | 426 kts | 244° |
| 2026-04-15 13:36 | 49.93548 | -61.42846 | 38238 ft | 426 kts | 244° |
| 2026-04-15 13:36 | 49.90474 | -61.50721 | 38234 ft | 426 kts | 244° |
| 2026-04-15 13:37 | 49.87386 | -61.58608 | 38236 ft | 426 kts | 244° |
| 2026-04-15 13:37 | 49.84296 | -61.66477 | 38236 ft | 426 kts | 244° |
| 2026-04-15 13:38 | 49.81210 | -61.74310 | 38245 ft | 427 kts | 244° |
| 2026-04-15 13:38 | 49.78111 | -61.82154 | 38237 ft | 427 kts | 244° |
| 2026-04-15 13:39 | 49.75001 | -61.90003 | 38193 ft | 427 kts | 244° |
| 2026-04-15 13:39 | 49.71889 | -61.97828 | 38221 ft | 426 kts | 244° |
| 2026-04-15 13:40 | 49.68784 | -62.05621 | 38229 ft | 426 kts | 244° |
| 2026-04-15 13:40 | 49.65691 | -62.13358 | 38230 ft | 426 kts | 244° |
| 2026-04-15 13:41 | 49.62572 | -62.21137 | 38227 ft | 426 kts | 244° |
| 2026-04-15 13:41 | 49.59448 | -62.28904 | 38181 ft | 425 kts | 244° |
| 2026-04-15 13:42 | 49.56319 | -62.36658 | 38214 ft | 425 kts | 244° |
| 2026-04-15 13:42 | 49.53192 | -62.44390 | 38233 ft | 425 kts | 244° |
| 2026-04-15 13:43 | 49.50075 | -62.52077 | 38214 ft | 425 kts | 244° |
| 2026-04-15 13:43 | 49.46933 | -62.59798 | 38210 ft | 425 kts | 244° |
| 2026-04-15 13:44 | 49.43787 | -62.67501 | 38199 ft | 424 kts | 244° |
| 2026-04-15 13:44 | 49.40642 | -62.75182 | 38214 ft | 424 kts | 244° |
| 2026-04-15 13:45 | 49.37499 | -62.82844 | 38210 ft | 423 kts | 244° |
| 2026-04-15 13:47 | 49.24896 | -63.13331 | 38199 ft | 423 kts | 244° |
| 2026-04-15 13:47 | 49.21732 | -63.20932 | 38203 ft | 423 kts | 244° |
| 2026-04-15 13:48 | 49.18560 | -63.28530 | 38195 ft | 423 kts | 244° |
| 2026-04-15 13:48 | 49.15399 | -63.36079 | 38195 ft | 423 kts | 244° |
| 2026-04-15 13:49 | 49.12219 | -63.43645 | 38184 ft | 422 kts | 244° |
| 2026-04-15 13:49 | 49.09035 | -63.51205 | 38192 ft | 422 kts | 244° |
| 2026-04-15 13:50 | 49.05857 | -63.58731 | 38194 ft | 421 kts | 244° |
| 2026-04-15 13:50 | 49.02675 | -63.66247 | 38195 ft | 421 kts | 244° |
| 2026-04-15 13:51 | 48.99486 | -63.73757 | 38197 ft | 421 kts | 244° |
| 2026-04-15 13:51 | 48.96319 | -63.81182 | 38185 ft | 419 kts | 244° |
| 2026-04-15 13:52 | 48.93139 | -63.88631 | 38198 ft | 418 kts | 244° |
| 2026-04-15 13:52 | 48.89959 | -63.96059 | 38198 ft | 418 kts | 244° |
| 2026-04-15 13:53 | 48.86777 | -64.03471 | 38189 ft | 418 kts | 244° |
| 2026-04-15 13:53 | 48.83606 | -64.10835 | 38183 ft | 418 kts | 244° |
| 2026-04-15 13:54 | 48.80414 | -64.18212 | 38168 ft | 416 kts | 245° |
| 2026-04-15 13:54 | 48.77235 | -64.25559 | 38170 ft | 416 kts | 245° |
| 2026-04-15 13:55 | 48.74051 | -64.32896 | 38160 ft | 416 kts | 245° |
| 2026-04-15 13:55 | 48.70867 | -64.40208 | 38165 ft | 415 kts | 245° |
| 2026-04-15 13:56 | 48.67683 | -64.47504 | 38121 ft | 415 kts | 245° |
| 2026-04-15 13:56 | 48.64497 | -64.54767 | 38155 ft | 412 kts | 245° |
| 2026-04-15 13:57 | 48.61343 | -64.61962 | 38166 ft | 412 kts | 245° |
| 2026-04-15 13:57 | 48.58168 | -64.69181 | 38166 ft | 412 kts | 245° |
| 2026-04-15 13:58 | 48.54988 | -64.76389 | 38166 ft | 412 kts | 245° |
| 2026-04-15 13:58 | 48.51805 | -64.83583 | 38104 ft | 412 kts | 245° |
| 2026-04-15 13:59 | 48.48624 | -64.90738 | 38155 ft | 410 kts | 246° |
| 2026-04-15 13:59 | 48.45449 | -64.97883 | 38159 ft | 410 kts | 246° |
| 2026-04-15 14:00 | 48.42275 | -65.05004 | 38160 ft | 409 kts | 246° |
| 2026-04-15 14:00 | 48.39090 | -65.12129 | 38158 ft | 409 kts | 245° |
| 2026-04-15 14:01 | 48.34331 | -65.22738 | 38132 ft | 408 kts | 245° |
| 2026-04-15 14:02 | 48.31147 | -65.29811 | 38118 ft | 408 kts | 245° |
| 2026-04-15 14:02 | 48.27956 | -65.36883 | 38134 ft | 408 kts | 245° |
| 2026-04-15 14:03 | 48.24763 | -65.43940 | 38111 ft | 408 kts | 245° |
| 2026-04-15 14:03 | 48.21567 | -65.50985 | 38126 ft | 408 kts | 245° |
| 2026-04-15 14:04 | 48.18367 | -65.58011 | 38112 ft | 406 kts | 245° |
| 2026-04-15 14:04 | 48.15197 | -65.64967 | 38120 ft | 406 kts | 245° |
| 2026-04-15 14:05 | 48.12001 | -65.71961 | 38118 ft | 406 kts | 245° |
| 2026-04-15 14:05 | 48.08799 | -65.78949 | 38128 ft | 406 kts | 245° |
| 2026-04-15 14:06 | 48.05598 | -65.85914 | 38097 ft | 406 kts | 245° |
| 2026-04-15 14:06 | 48.02394 | -65.92865 | 38144 ft | 405 kts | 245° |
| 2026-04-15 14:07 | 47.99197 | -65.99789 | 38147 ft | 404 kts | 245° |
| 2026-04-15 14:07 | 47.96001 | -66.06692 | 38135 ft | 404 kts | 245° |
| 2026-04-15 14:08 | 47.92806 | -66.13576 | 38125 ft | 404 kts | 245° |
| 2026-04-15 14:08 | 47.89620 | -66.20422 | 38084 ft | 404 kts | 245° |
| 2026-04-15 14:09 | 47.86414 | -66.27294 | 38106 ft | 403 kts | 245° |
| 2026-04-15 14:09 | 47.83205 | -66.34156 | 38109 ft | 403 kts | 245° |
| 2026-04-15 14:10 | 47.79994 | -66.41004 | 38103 ft | 403 kts | 245° |
| 2026-04-15 14:10 | 47.76774 | -66.47853 | 38089 ft | 403 kts | 245° |
| 2026-04-15 14:11 | 47.73571 | -66.54650 | 38054 ft | 403 kts | 245° |
| 2026-04-15 14:11 | 47.70348 | -66.61471 | 38078 ft | 403 kts | 245° |
| 2026-04-15 14:12 | 47.67119 | -66.68289 | 38077 ft | 403 kts | 245° |
| 2026-04-15 14:12 | 47.64433 | -66.73948 | 38082 ft | 403 kts | 245° |
| 2026-04-15 14:13 | 47.61205 | -66.80733 | 38076 ft | 402 kts | 245° |
| 2026-04-15 14:13 | 47.57974 | -66.87507 | 38035 ft | 402 kts | 245° |
| 2026-04-15 14:14 | 47.54737 | -66.94276 | 38057 ft | 402 kts | 245° |
| 2026-04-15 14:14 | 47.51499 | -67.01035 | 38063 ft | 402 kts | 245° |
| 2026-04-15 14:15 | 47.48279 | -67.07737 | 38057 ft | 402 kts | 244° |
| 2026-04-15 14:15 | 47.45034 | -67.14474 | 38057 ft | 402 kts | 244° |
| 2026-04-15 14:16 | 47.41781 | -67.21208 | 38026 ft | 402 kts | 244° |
| 2026-04-15 14:16 | 47.38372 | -67.27808 | 38041 ft | 407 kts | 240° |
| 2026-04-15 14:17 | 47.34504 | -67.34008 | 38049 ft | 414 kts | 236° |
| 2026-04-15 14:17 | 47.30246 | -67.39806 | 38044 ft | 417 kts | 233° |
| 2026-04-15 14:18 | 47.25958 | -67.45550 | 38008 ft | 416 kts | 233° |
| 2026-04-15 14:18 | 47.21675 | -67.51266 | 38035 ft | 415 kts | 233° |
| 2026-04-15 14:19 | 47.17411 | -67.56936 | 38038 ft | 415 kts | 233° |
| 2026-04-15 14:19 | 47.13123 | -67.62622 | 38032 ft | 415 kts | 233° |
| 2026-04-15 14:20 | 47.08836 | -67.68292 | 38009 ft | 414 kts | 233° |
| 2026-04-15 14:20 | 47.04556 | -67.73937 | 38017 ft | 413 kts | 233° |
| 2026-04-15 14:21 | 47.00273 | -67.79577 | 38024 ft | 413 kts | 233° |
| 2026-04-15 14:21 | 46.96013 | -67.85173 | 38025 ft | 413 kts | 233° |
| 2026-04-15 14:22 | 46.91725 | -67.90793 | 38024 ft | 413 kts | 233° |
| 2026-04-15 14:22 | 46.87421 | -67.96420 | 38017 ft | 415 kts | 233° |
| 2026-04-15 14:23 | 46.83118 | -68.02035 | 38028 ft | 415 kts | 233° |
| 2026-04-15 14:23 | 46.78800 | -68.07655 | 38027 ft | 415 kts | 233° |
| 2026-04-15 14:24 | 46.74282 | -68.13043 | 38046 ft | 420 kts | 230° |
| 2026-04-15 14:24 | 46.69690 | -68.18334 | 38045 ft | 420 kts | 230° |
| 2026-04-15 14:25 | 46.65128 | -68.23581 | 38053 ft | 420 kts | 230° |
| 2026-04-15 14:25 | 46.60533 | -68.28847 | 38058 ft | 420 kts | 230° |
| 2026-04-15 14:26 | 46.55937 | -68.34101 | 38016 ft | 420 kts | 230° |
| 2026-04-15 14:26 | 46.51328 | -68.39358 | 38062 ft | 422 kts | 230° |
| 2026-04-15 14:27 | 46.46709 | -68.44616 | 38070 ft | 422 kts | 230° |
| 2026-04-15 14:27 | 46.42077 | -68.49875 | 38065 ft | 422 kts | 230° |
| 2026-04-15 14:28 | 46.37481 | -68.55081 | 38053 ft | 422 kts | 230° |
| 2026-04-15 14:28 | 46.32854 | -68.60311 | 38059 ft | 422 kts | 230° |
| 2026-04-15 14:29 | 46.28222 | -68.65536 | 38061 ft | 422 kts | 230° |
| 2026-04-15 14:29 | 46.23585 | -68.70755 | 38058 ft | 422 kts | 230° |
| 2026-04-15 14:30 | 46.18948 | -68.75960 | 38026 ft | 423 kts | 230° |
| 2026-04-15 14:30 | 46.14296 | -68.81174 | 38054 ft | 423 kts | 230° |
| 2026-04-15 14:31 | 46.09638 | -68.86382 | 38044 ft | 423 kts | 230° |
| 2026-04-15 14:31 | 46.05003 | -68.91554 | 38038 ft | 423 kts | 230° |
| 2026-04-15 14:32 | 46.00324 | -68.96760 | 38017 ft | 426 kts | 230° |
| 2026-04-15 14:32 | 45.95636 | -69.01969 | 38022 ft | 426 kts | 230° |
| 2026-04-15 14:33 | 45.90925 | -69.07190 | 38023 ft | 427 kts | 230° |
| 2026-04-15 14:33 | 45.86241 | -69.12369 | 38018 ft | 427 kts | 230° |
| 2026-04-15 14:34 | 45.81527 | -69.17570 | 38016 ft | 428 kts | 230° |
| 2026-04-15 14:34 | 45.76803 | -69.22773 | 38016 ft | 428 kts | 230° |
| 2026-04-15 14:35 | 45.72065 | -69.27977 | 38007 ft | 428 kts | 230° |
| 2026-04-15 14:35 | 45.67332 | -69.33163 | 37970 ft | 429 kts | 231° |
| 2026-04-15 14:36 | 45.62570 | -69.38372 | 37999 ft | 430 kts | 231° |
| 2026-04-15 14:36 | 45.57838 | -69.43539 | 37999 ft | 431 kts | 230° |
| 2026-04-15 14:37 | 45.53066 | -69.48737 | 38002 ft | 431 kts | 230° |
| 2026-04-15 14:37 | 45.48291 | -69.53922 | 37983 ft | 432 kts | 231° |
| 2026-04-15 14:38 | 45.43501 | -69.59116 | 37993 ft | 432 kts | 231° |
| 2026-04-15 14:38 | 45.38712 | -69.64298 | 37997 ft | 432 kts | 231° |
| 2026-04-15 14:39 | 45.33918 | -69.69474 | 37960 ft | 432 kts | 231° |
| 2026-04-15 14:39 | 45.29146 | -69.74612 | 37984 ft | 433 kts | 231° |
| 2026-04-15 14:40 | 45.24338 | -69.79781 | 37987 ft | 433 kts | 231° |
| 2026-04-15 14:40 | 45.19527 | -69.84941 | 37986 ft | 433 kts | 231° |
| 2026-04-15 14:41 | 45.14714 | -69.90090 | 37975 ft | 433 kts | 231° |
| 2026-04-15 14:41 | 45.09894 | -69.95238 | 37981 ft | 434 kts | 231° |
| 2026-04-15 14:42 | 45.05069 | -70.00380 | 37984 ft | 434 kts | 231° |
| 2026-04-15 14:42 | 45.00232 | -70.05524 | 37980 ft | 434 kts | 231° |
| 2026-04-15 14:43 | 44.95432 | -70.10615 | 37981 ft | 434 kts | 231° |
| 2026-04-15 14:43 | 44.90604 | -70.15727 | 37981 ft | 434 kts | 231° |
| 2026-04-15 14:44 | 44.85762 | -70.20842 | 37982 ft | 434 kts | 231° |
| 2026-04-15 14:44 | 44.80922 | -70.25945 | 37966 ft | 434 kts | 230° |
| 2026-04-15 14:45 | 44.76081 | -70.31036 | 37971 ft | 434 kts | 230° |
| 2026-04-15 14:45 | 44.71239 | -70.36118 | 37976 ft | 434 kts | 230° |
| 2026-04-15 14:46 | 44.66417 | -70.41168 | 37979 ft | 434 kts | 230° |
| 2026-04-15 14:46 | 44.61566 | -70.46247 | 37962 ft | 435 kts | 230° |
| 2026-04-15 14:47 | 44.56701 | -70.51317 | 37973 ft | 435 kts | 230° |
| 2026-04-15 14:47 | 44.51836 | -70.56376 | 37986 ft | 435 kts | 230° |
| 2026-04-15 14:48 | 44.46967 | -70.61439 | 37956 ft | 437 kts | 229° |
| 2026-04-15 14:48 | 44.42056 | -70.66532 | 37973 ft | 439 kts | 229° |
| 2026-04-15 14:49 | 44.37171 | -70.71577 | 37971 ft | 439 kts | 229° |
| 2026-04-15 14:49 | 44.32252 | -70.76649 | 37943 ft | 439 kts | 229° |
| 2026-04-15 14:50 | 44.27322 | -70.81732 | 37973 ft | 442 kts | 229° |
| 2026-04-15 14:50 | 44.22366 | -70.86821 | 37991 ft | 442 kts | 228° |
| 2026-04-15 14:51 | 44.17405 | -70.91903 | 37996 ft | 442 kts | 228° |
| 2026-04-15 14:51 | 44.12436 | -70.96992 | 37993 ft | 443 kts | 228° |
| 2026-04-15 14:52 | 44.07496 | -71.02033 | 38009 ft | 443 kts | 228° |
| 2026-04-15 14:52 | 44.02515 | -71.07105 | 38004 ft | 443 kts | 228° |
| 2026-04-15 14:53 | 43.97538 | -71.12167 | 37970 ft | 444 kts | 227° |
| 2026-04-15 14:53 | 43.92533 | -71.17248 | 37997 ft | 446 kts | 227° |
| 2026-04-15 14:54 | 43.87514 | -71.22323 | 37986 ft | 446 kts | 227° |
| 2026-04-15 14:54 | 43.82495 | -71.27389 | 37937 ft | 446 kts | 227° |
| 2026-04-15 14:55 | 43.77504 | -71.32425 | 37969 ft | 446 kts | 227° |
| 2026-04-15 14:55 | 43.72467 | -71.37487 | 37961 ft | 447 kts | 227° |
| 2026-04-15 14:56 | 43.67430 | -71.42541 | 37961 ft | 447 kts | 227° |
| 2026-04-15 14:56 | 43.62404 | -71.47585 | 37951 ft | 445 kts | 226° |
| 2026-04-15 14:57 | 43.57394 | -71.52584 | 38001 ft | 444 kts | 226° |
| 2026-04-15 14:57 | 43.52421 | -71.57541 | 37980 ft | 443 kts | 226° |
| 2026-04-15 14:58 | 43.47425 | -71.62524 | 37946 ft | 443 kts | 225° |
| 2026-04-15 14:58 | 43.42417 | -71.67497 | 37965 ft | 443 kts | 225° |
| 2026-04-15 14:59 | 43.37399 | -71.72465 | 37977 ft | 443 kts | 225° |
| 2026-04-15 14:59 | 43.32385 | -71.77422 | 37977 ft | 443 kts | 225° |
| 2026-04-15 15:00 | 43.27403 | -71.82338 | 37974 ft | 443 kts | 225° |
| 2026-04-15 15:00 | 43.22382 | -71.87284 | 37972 ft | 443 kts | 225° |
| 2026-04-15 15:01 | 43.17366 | -71.92216 | 37979 ft | 443 kts | 225° |
| 2026-04-15 15:01 | 43.13218 | -71.96293 | 37950 ft | 441 kts | 224° |
| 2026-04-15 15:02 | 43.07382 | -72.02001 | 37956 ft | 441 kts | 224° |
| 2026-04-15 15:02 | 43.02409 | -72.06854 | 37965 ft | 441 kts | 224° |
| 2026-04-15 15:03 | 42.98218 | -72.10949 | 37929 ft | 442 kts | 223° |
| 2026-04-15 15:03 | 42.93186 | -72.15849 | 37973 ft | 444 kts | 223° |
| 2026-04-15 15:04 | 42.88179 | -72.20702 | 37964 ft | 444 kts | 223° |
| 2026-04-15 15:04 | 42.83132 | -72.25590 | 37979 ft | 445 kts | 222° |
| 2026-04-15 15:05 | 42.77873 | -72.30134 | 37992 ft | 450 kts | 216° |
| 2026-04-15 15:05 | 42.72278 | -72.34021 | 38003 ft | 452 kts | 213° |
| 2026-04-15 15:06 | 42.63841 | -72.39722 | 37999 ft | 452 kts | 213° |
| 2026-04-15 15:06 | 42.58229 | -72.43510 | 38009 ft | 453 kts | 212° |
| 2026-04-15 15:07 | 42.52573 | -72.47315 | 38008 ft | 453 kts | 212° |
| 2026-04-15 15:07 | 42.46917 | -72.51114 | 37968 ft | 454 kts | 212° |
| 2026-04-15 15:08 | 42.41236 | -72.54924 | 37967 ft | 455 kts | 212° |
| 2026-04-15 15:08 | 42.35553 | -72.58725 | 37973 ft | 455 kts | 212° |
| 2026-04-15 15:09 | 42.29911 | -72.62491 | 37979 ft | 452 kts | 212° |
| 2026-04-15 15:09 | 42.24283 | -72.66271 | 37972 ft | 450 kts | 214° |
| 2026-04-15 15:10 | 42.18988 | -72.70683 | 37977 ft | 445 kts | 221° |
| 2026-04-15 15:10 | 42.14238 | -72.75975 | 37989 ft | 440 kts | 229° |
| 2026-04-15 15:11 | 42.10115 | -72.82007 | 37981 ft | 435 kts | 236° |
| 2026-04-15 15:11 | 42.06385 | -72.88375 | 37975 ft | 435 kts | 237° |
| 2026-04-15 15:12 | 42.02636 | -72.94782 | 37980 ft | 435 kts | 237° |
| 2026-04-15 15:12 | 41.98904 | -73.01139 | 37975 ft | 431 kts | 237° |
| 2026-04-15 15:13 | 41.95186 | -73.07458 | 37940 ft | 431 kts | 236° |
| 2026-04-15 15:13 | 41.91457 | -73.13771 | 37962 ft | 431 kts | 236° |
| 2026-04-15 15:14 | 41.87743 | -73.20040 | 37971 ft | 431 kts | 236° |
| 2026-04-15 15:14 | 41.84001 | -73.26345 | 37968 ft | 431 kts | 236° |
| 2026-04-15 15:15 | 41.80260 | -73.32632 | 37977 ft | 431 kts | 236° |
| 2026-04-15 15:15 | 41.76522 | -73.38913 | 37968 ft | 430 kts | 236° |
| 2026-04-15 15:16 | 41.72784 | -73.45186 | 37968 ft | 430 kts | 236° |
| 2026-04-15 15:16 | 41.69041 | -73.51455 | 37970 ft | 430 kts | 236° |
| 2026-04-15 15:17 | 41.65289 | -73.57721 | 37975 ft | 430 kts | 236° |
| 2026-04-15 15:17 | 41.61540 | -73.63972 | 37979 ft | 431 kts | 236° |
| 2026-04-15 15:18 | 41.57808 | -73.70172 | 37978 ft | 429 kts | 237° |
| 2026-04-15 15:18 | 41.54069 | -73.76383 | 37978 ft | 428 kts | 237° |
| 2026-04-15 15:19 | 41.50205 | -73.82475 | 37975 ft | 431 kts | 232° |
| 2026-04-15 15:19 | 41.45996 | -73.88208 | 37953 ft | 432 kts | 231° |
| 2026-04-15 15:20 | 41.41765 | -73.93920 | 37963 ft | 433 kts | 231° |
| 2026-04-15 15:20 | 41.37529 | -73.99623 | 37965 ft | 433 kts | 231° |
| 2026-04-15 15:21 | 41.33330 | -74.05252 | 37972 ft | 430 kts | 232° |
| 2026-04-15 15:21 | 41.29122 | -74.10903 | 37932 ft | 429 kts | 232° |
| 2026-04-15 15:22 | 41.24891 | -74.16563 | 37968 ft | 432 kts | 232° |
| 2026-04-15 15:22 | 41.20806 | -74.22391 | 37989 ft | 428 kts | 237° |
| 2026-04-15 15:23 | 41.17215 | -74.28641 | 38007 ft | 423 kts | 242° |
| 2026-04-15 15:23 | 41.14079 | -74.35239 | 37996 ft | 421 kts | 245° |
| 2026-04-15 15:24 | 41.11028 | -74.41813 | 37992 ft | 419 kts | 247° |
| 2026-04-15 15:24 | 41.07984 | -74.48423 | 38009 ft | 419 kts | 247° |
| 2026-04-15 15:25 | 41.04932 | -74.55032 | 38004 ft | 420 kts | 247° |
| 2026-04-15 15:25 | 41.01877 | -74.61621 | 37995 ft | 419 kts | 247° |
| 2026-04-15 15:26 | 40.98814 | -74.68212 | 37996 ft | 420 kts | 247° |
| 2026-04-15 15:26 | 40.95744 | -74.74798 | 37975 ft | 420 kts | 247° |
| 2026-04-15 15:27 | 40.92664 | -74.81392 | 37986 ft | 421 kts | 247° |
| 2026-04-15 15:27 | 40.89604 | -74.87932 | 37984 ft | 421 kts | 247° |
| 2026-04-15 15:28 | 40.86517 | -74.94513 | 37986 ft | 421 kts | 247° |
| 2026-04-15 15:28 | 40.83415 | -75.01107 | 37989 ft | 421 kts | 247° |
| 2026-04-15 15:29 | 40.80316 | -75.07674 | 37994 ft | 420 kts | 247° |
| 2026-04-15 15:29 | 40.77228 | -75.14211 | 37999 ft | 419 kts | 246° |
| 2026-04-15 15:30 | 40.74133 | -75.20744 | 38012 ft | 419 kts | 246° |
| 2026-04-15 15:30 | 40.71033 | -75.27276 | 38021 ft | 419 kts | 246° |
| 2026-04-15 15:31 | 40.67929 | -75.33797 | 38027 ft | 419 kts | 246° |
| 2026-04-15 15:31 | 40.64923 | -75.40368 | 38027 ft | 417 kts | 249° |
| 2026-04-15 15:32 | 40.62063 | -75.47025 | 38019 ft | 417 kts | 248° |
| 2026-04-15 15:32 | 40.59212 | -75.53627 | 38024 ft | 417 kts | 248° |
| 2026-04-15 15:33 | 40.56340 | -75.60265 | 38029 ft | 417 kts | 248° |
| 2026-04-15 15:33 | 40.53466 | -75.66898 | 38026 ft | 417 kts | 248° |
| 2026-04-15 15:34 | 40.50587 | -75.73528 | 38021 ft | 417 kts | 248° |
| 2026-04-15 15:34 | 40.47701 | -75.80161 | 38015 ft | 417 kts | 247° |
| 2026-04-15 15:35 | 40.44498 | -75.86572 | 37920 ft | 420 kts | 241° |
| 2026-04-15 15:35 | 40.42719 | -75.89607 | 36874 ft | 421 kts | 238° |
| 2026-04-15 15:35 | 40.40820 | -75.92531 | 35233 ft | 433 kts | 234° |
| 2026-04-15 15:36 | 40.38701 | -75.95458 | 33428 ft | 450 kts | 230° |
| 2026-04-15 15:36 | 40.36421 | -75.98362 | 31718 ft | 459 kts | 229° |
| 2026-04-15 15:36 | 40.34113 | -76.01279 | 30892 ft | 460 kts | 229° |
| 2026-04-15 15:36 | 40.31815 | -76.04173 | 30386 ft | 455 kts | 229° |
| 2026-04-15 15:37 | 40.29535 | -76.07047 | 29727 ft | 454 kts | 229° |
| 2026-04-15 15:37 | 40.27263 | -76.09916 | 28985 ft | 453 kts | 229° |
| 2026-04-15 15:37 | 40.24991 | -76.12784 | 28267 ft | 453 kts | 229° |
| 2026-04-15 15:37 | 40.22723 | -76.15645 | 27543 ft | 453 kts | 229° |
| 2026-04-15 15:38 | 40.20435 | -76.18532 | 26961 ft | 459 kts | 229° |
| 2026-04-15 15:38 | 40.18140 | -76.21421 | 26405 ft | 456 kts | 228° |
| 2026-04-15 15:38 | 40.15858 | -76.24287 | 25840 ft | 452 kts | 228° |
| 2026-04-15 15:38 | 40.13675 | -76.27219 | 25294 ft | 444 kts | 232° |
| 2026-04-15 15:39 | 40.11719 | -76.30307 | 24787 ft | 436 kts | 237° |
| 2026-04-15 15:39 | 40.10006 | -76.33500 | 24305 ft | 429 kts | 241° |
| 2026-04-15 15:39 | 40.08444 | -76.36808 | 23809 ft | 424 kts | 243° |
| 2026-04-15 15:39 | 40.06913 | -76.40128 | 23270 ft | 420 kts | 243° |
| 2026-04-15 15:40 | 40.05415 | -76.43388 | 22736 ft | 416 kts | 243° |
| 2026-04-15 15:40 | 40.03930 | -76.46610 | 22253 ft | 411 kts | 243° |
| 2026-04-15 15:40 | 40.02461 | -76.49790 | 21773 ft | 406 kts | 243° |
| 2026-04-15 15:40 | 40.01004 | -76.52936 | 21304 ft | 402 kts | 243° |
| 2026-04-15 15:41 | 39.99566 | -76.56038 | 20854 ft | 397 kts | 243° |
| 2026-04-15 15:41 | 39.98139 | -76.59110 | 20387 ft | 394 kts | 243° |
| 2026-04-15 15:41 | 39.96724 | -76.62155 | 19926 ft | 390 kts | 243° |
| 2026-04-15 15:41 | 39.95319 | -76.65179 | 19463 ft | 388 kts | 243° |
| 2026-04-15 15:42 | 39.93923 | -76.68178 | 18985 ft | 385 kts | 243° |
| 2026-04-15 15:42 | 39.92537 | -76.71156 | 18525 ft | 383 kts | 243° |
| 2026-04-15 15:42 | 39.91172 | -76.74083 | 18021 ft | 381 kts | 243° |
| 2026-04-15 15:42 | 39.89796 | -76.77031 | 17520 ft | 378 kts | 243° |
| 2026-04-15 15:43 | 39.88435 | -76.79945 | 17053 ft | 375 kts | 243° |
| 2026-04-15 15:43 | 39.87083 | -76.82835 | 16564 ft | 372 kts | 243° |
| 2026-04-15 15:43 | 39.85742 | -76.85698 | 16117 ft | 369 kts | 242° |
| 2026-04-15 15:43 | 39.84195 | -76.88459 | 15805 ft | 384 kts | 233° |
| 2026-04-15 15:44 | 39.82412 | -76.91074 | 15578 ft | 386 kts | 231° |
| 2026-04-15 15:44 | 39.80600 | -76.93655 | 15439 ft | 385 kts | 231° |
| 2026-04-15 15:44 | 39.78786 | -76.96254 | 15329 ft | 385 kts | 231° |
| 2026-04-15 15:44 | 39.76999 | -76.98839 | 15193 ft | 384 kts | 232° |
| 2026-04-15 15:45 | 39.75227 | -77.01423 | 14874 ft | 383 kts | 232° |
| 2026-04-15 15:45 | 39.73462 | -77.04009 | 14356 ft | 380 kts | 232° |
| 2026-04-15 15:45 | 39.71719 | -77.06572 | 13781 ft | 377 kts | 231° |
| 2026-04-15 15:45 | 39.69990 | -77.09114 | 13223 ft | 372 kts | 231° |
| 2026-04-15 15:46 | 39.68287 | -77.11615 | 12719 ft | 366 kts | 231° |
| 2026-04-15 15:46 | 39.66631 | -77.14050 | 12255 ft | 361 kts | 231° |
| 2026-04-15 15:46 | 39.64977 | -77.16479 | 11784 ft | 356 kts | 231° |
| 2026-04-15 15:46 | 39.63335 | -77.18891 | 11326 ft | 351 kts | 231° |
| 2026-04-15 15:47 | 39.61726 | -77.21254 | 10910 ft | 345 kts | 231° |
| 2026-04-15 15:47 | 39.60149 | -77.23567 | 10538 ft | 338 kts | 231° |
| 2026-04-15 15:47 | 39.58617 | -77.25809 | 10391 ft | 324 kts | 231° |
| 2026-04-15 15:47 | 39.57157 | -77.27945 | 10302 ft | 309 kts | 231° |
| 2026-04-15 15:48 | 39.55767 | -77.29977 | 10231 ft | 294 kts | 231° |
| 2026-04-15 15:48 | 39.54442 | -77.31918 | 10145 ft | 280 kts | 231° |
| 2026-04-15 15:48 | 39.53180 | -77.33764 | 10093 ft | 267 kts | 231° |
| 2026-04-15 15:48 | 39.51978 | -77.35521 | 10062 ft | 261 kts | 231° |
| 2026-04-15 15:49 | 39.50780 | -77.37270 | 9990 ft | 259 kts | 231° |
| 2026-04-15 15:49 | 39.49583 | -77.39022 | 9624 ft | 260 kts | 231° |
| 2026-04-15 15:49 | 39.48387 | -77.40765 | 9307 ft | 257 kts | 231° |
| 2026-04-15 15:49 | 39.47197 | -77.42501 | 9038 ft | 258 kts | 231° |
| 2026-04-15 15:50 | 39.46002 | -77.44168 | 8992 ft | 246 kts | 222° |
| 2026-04-15 15:50 | 39.44489 | -77.45104 | 8981 ft | 238 kts | 197° |
| 2026-04-15 15:50 | 39.42867 | -77.45338 | 8996 ft | 234 kts | 187° |
| 2026-04-15 15:50 | 39.41237 | -77.45371 | 8961 ft | 232 kts | 186° |
| 2026-04-15 15:51 | 39.39634 | -77.45367 | 8722 ft | 228 kts | 186° |
| 2026-04-15 15:51 | 39.38590 | -77.45365 | 8554 ft | 226 kts | 186° |
| 2026-04-15 15:51 | 39.37026 | -77.45368 | 8243 ft | 225 kts | 186° |
| 2026-04-15 15:51 | 39.34915 | -77.45386 | 7657 ft | 232 kts | 186° |
| 2026-04-15 15:52 | 39.33278 | -77.45405 | 7231 ft | 238 kts | 185° |
| 2026-04-15 15:52 | 39.31611 | -77.45424 | 6877 ft | 241 kts | 185° |
| 2026-04-15 15:52 | 39.30474 | -77.45439 | 6632 ft | 242 kts | 185° |
| 2026-04-15 15:52 | 39.28782 | -77.45461 | 6251 ft | 244 kts | 185° |
| 2026-04-15 15:53 | 39.27091 | -77.45484 | 5938 ft | 242 kts | 185° |
| 2026-04-15 15:53 | 39.25409 | -77.45508 | 5614 ft | 241 kts | 186° |
| 2026-04-15 15:53 | 39.23759 | -77.45534 | 5305 ft | 239 kts | 186° |
| 2026-04-15 15:53 | 39.22105 | -77.45561 | 5009 ft | 236 kts | 187° |
| 2026-04-15 15:54 | 39.20469 | -77.45587 | 4711 ft | 234 kts | 187° |
| 2026-04-15 15:54 | 39.18852 | -77.45612 | 4403 ft | 230 kts | 186° |
| 2026-04-15 15:54 | 39.17262 | -77.45635 | 4117 ft | 226 kts | 185° |
| 2026-04-15 15:54 | 39.15693 | -77.45658 | 3842 ft | 225 kts | 185° |
| 2026-04-15 15:55 | 39.14129 | -77.45682 | 3562 ft | 224 kts | 184° |
| 2026-04-15 15:55 | 39.12570 | -77.45704 | 3229 ft | 223 kts | 184° |
| 2026-04-15 15:55 | 39.11048 | -77.45727 | 2929 ft | 219 kts | 182° |
| 2026-04-15 15:55 | 39.09526 | -77.45749 | 2672 ft | 216 kts | 183° |
| 2026-04-15 15:56 | 39.08061 | -77.45770 | 2418 ft | 204 kts | 182° |
| 2026-04-15 15:56 | 39.06694 | -77.45789 | 2131 ft | 190 kts | 184° |
| 2026-04-15 15:56 | 39.05417 | -77.45808 | 1850 ft | 176 kts | 183° |
| 2026-04-15 15:56 | 39.04245 | -77.45824 | 1632 ft | 161 kts | 184° |
| 2026-04-15 15:57 | 39.03164 | -77.45842 | 1399 ft | 154 kts | 184° |
| 2026-04-15 15:57 | 39.02094 | -77.45859 | 1248 ft | 153 kts | 184° |
| 2026-04-15 15:57 | 39.01022 | -77.45877 | 1061 ft | 153 kts | 181° |
| 2026-04-15 15:57 | 38.99961 | -77.45883 | 880 ft | 153 kts | 182° |
| 2026-04-15 15:58 | 38.98899 | -77.45899 | 669 ft | 152 kts | 182° |
| 2026-04-15 15:58 | 38.97857 | -77.45922 | 498 ft | 151 kts | 182° |
| 2026-04-15 15:58 | 38.96807 | -77.45939 | 312 ft | 148 kts | 180° |
| 2026-04-15 15:58 | 38.95919 | -77.45950 | 312 ft | 101 kts | 181° |
| 2026-04-15 15:59 | 38.95399 | -77.45958 | 311 ft | 50 kts | 180° |
| 2026-04-15 15:59 | 38.95160 | -77.45962 | 310 ft | 32 kts | 179° |
| 2026-04-15 15:59 | 38.94971 | -77.45896 | 308 ft | 19 kts | 151° |
| 2026-04-15 15:59 | 38.94850 | -77.45807 | 311 ft | 21 kts | 149° |
| 2026-04-15 16:00 | 38.94764 | -77.45723 | 311 ft | 14 kts | 114° |
| 2026-04-15 16:00 | 38.94748 | -77.45625 | 311 ft | 8 kts | 105° |
| 2026-04-15 16:00 | 38.94732 | -77.45549 | 310 ft | 9 kts | 105° |
| 2026-04-15 16:00 | 38.94748 | -77.45513 | 311 ft | 4 kts | 41° |
| 2026-04-15 16:01 | 38.94750 | -77.45472 | 310 ft | 7 kts | 110° |
| 2026-04-15 16:01 | 38.94730 | -77.45400 | 311 ft | 10 kts | 96° |
| 2026-04-15 16:01 | 38.94729 | -77.45295 | 309 ft | 10 kts | 90° |
| 2026-04-15 16:01 | 38.94729 | -77.45218 | 309 ft | 6 kts | 90° |
| 2026-04-15 16:02 | 38.94728 | -77.45145 | 309 ft | 10 kts | 90° |
| 2026-04-15 16:02 | 38.94728 | -77.45039 | 309 ft | 14 kts | 90° |
| 2026-04-15 16:02 | 38.94734 | -77.44976 | 309 ft | 7 kts | 53° |
| 2026-04-15 16:02 | 38.94771 | -77.44947 | 309 ft | 2 kts | 26° |
| 2026-04-15 16:03 | 38.94787 | -77.44940 | 311 ft | 0 kts | 17° |
| 2026-04-15 16:03 | 38.94795 | -77.44936 | 310 ft | 1 kts | 18° |
| 2026-04-15 16:03 | 38.94799 | -77.44935 | 310 ft | 0 kts | 18° |